<?xml version="1.0" encoding="UTF-8" standalone="no" ?>
<gpx xmlns="http://www.topografix.com/GPX/1/1" xmlns:xsi="http://www.w3.org/2001/XMLSchema-instance" xsi:schemaLocation="http://www.topografix.com/GPX/1/1 http://www.topografix.com/GPX/1/1/gpx.xsd" version="1.1" creator="VisuGPX - https://www.visugpx.com">
  <metadata>
    <name>bois muguet</name>
  </metadata>
  <trk>
    <name><![CDATA[bois muguet_1]]></name>
    <trkseg>
      <trkpt lat="48.51131" lon="3.10114">
        <ele>105.2</ele>
        <time>2021-04-25T11:48:33Z</time>
      </trkpt>
      <trkpt lat="48.51128" lon="3.10109">
        <ele>104.9</ele>
        <time>2021-04-25T11:48:43Z</time>
      </trkpt>
      <trkpt lat="48.51132" lon="3.1011">
        <ele>103</ele>
        <time>2021-04-25T11:48:53Z</time>
      </trkpt>
      <trkpt lat="48.51136" lon="3.10105">
        <ele>103</ele>
        <time>2021-04-25T11:48:55Z</time>
      </trkpt>
      <trkpt lat="48.51141" lon="3.10104">
        <ele>103.2</ele>
        <time>2021-04-25T11:49:02Z</time>
      </trkpt>
      <trkpt lat="48.51146" lon="3.10105">
        <ele>103.2</ele>
        <time>2021-04-25T11:49:08Z</time>
      </trkpt>
      <trkpt lat="48.51151" lon="3.10107">
        <ele>103.3</ele>
        <time>2021-04-25T11:49:14Z</time>
      </trkpt>
      <trkpt lat="48.51156" lon="3.10109">
        <ele>103.2</ele>
        <time>2021-04-25T11:49:18Z</time>
      </trkpt>
      <trkpt lat="48.5116" lon="3.10112">
        <ele>103.1</ele>
        <time>2021-04-25T11:49:22Z</time>
      </trkpt>
      <trkpt lat="48.51164" lon="3.10116">
        <ele>103</ele>
        <time>2021-04-25T11:49:26Z</time>
      </trkpt>
      <trkpt lat="48.51169" lon="3.1012">
        <ele>102.9</ele>
        <time>2021-04-25T11:49:31Z</time>
      </trkpt>
      <trkpt lat="48.51173" lon="3.10124">
        <ele>102.7</ele>
        <time>2021-04-25T11:49:36Z</time>
      </trkpt>
      <trkpt lat="48.51177" lon="3.10128">
        <ele>102.6</ele>
        <time>2021-04-25T11:49:41Z</time>
      </trkpt>
      <trkpt lat="48.5118" lon="3.10133">
        <ele>102.4</ele>
        <time>2021-04-25T11:49:46Z</time>
      </trkpt>
      <trkpt lat="48.51184" lon="3.10139">
        <ele>102.2</ele>
        <time>2021-04-25T11:49:52Z</time>
      </trkpt>
      <trkpt lat="48.51187" lon="3.10144">
        <ele>102.1</ele>
        <time>2021-04-25T11:49:57Z</time>
      </trkpt>
      <trkpt lat="48.5119" lon="3.10152">
        <ele>102</ele>
        <time>2021-04-25T11:50:00Z</time>
      </trkpt>
      <trkpt lat="48.51193" lon="3.10157">
        <ele>104</ele>
        <time>2021-04-25T11:50:17Z</time>
      </trkpt>
      <trkpt lat="48.51197" lon="3.10162">
        <ele>104.8</ele>
        <time>2021-04-25T11:50:23Z</time>
      </trkpt>
      <trkpt lat="48.512" lon="3.10168">
        <ele>106.1</ele>
        <time>2021-04-25T11:50:27Z</time>
      </trkpt>
      <trkpt lat="48.51203" lon="3.10175">
        <ele>107.2</ele>
        <time>2021-04-25T11:50:31Z</time>
      </trkpt>
      <trkpt lat="48.51207" lon="3.10182">
        <ele>108.4</ele>
        <time>2021-04-25T11:50:35Z</time>
      </trkpt>
      <trkpt lat="48.51211" lon="3.10186">
        <ele>110</ele>
        <time>2021-04-25T11:50:41Z</time>
      </trkpt>
      <trkpt lat="48.51215" lon="3.1019">
        <ele>111.1</ele>
        <time>2021-04-25T11:50:46Z</time>
      </trkpt>
      <trkpt lat="48.5122" lon="3.10194">
        <ele>112.1</ele>
        <time>2021-04-25T11:50:51Z</time>
      </trkpt>
      <trkpt lat="48.51224" lon="3.10198">
        <ele>113.1</ele>
        <time>2021-04-25T11:50:56Z</time>
      </trkpt>
      <trkpt lat="48.51228" lon="3.10203">
        <ele>114.3</ele>
        <time>2021-04-25T11:51:02Z</time>
      </trkpt>
      <trkpt lat="48.51232" lon="3.10206">
        <ele>115.1</ele>
        <time>2021-04-25T11:51:07Z</time>
      </trkpt>
      <trkpt lat="48.51236" lon="3.10208">
        <ele>115.6</ele>
        <time>2021-04-25T11:51:12Z</time>
      </trkpt>
      <trkpt lat="48.51241" lon="3.1021">
        <ele>116.1</ele>
        <time>2021-04-25T11:51:17Z</time>
      </trkpt>
      <trkpt lat="48.51246" lon="3.10212">
        <ele>116.5</ele>
        <time>2021-04-25T11:51:22Z</time>
      </trkpt>
      <trkpt lat="48.51251" lon="3.10213">
        <ele>117</ele>
        <time>2021-04-25T11:51:27Z</time>
      </trkpt>
      <trkpt lat="48.51256" lon="3.10215">
        <ele>117.5</ele>
        <time>2021-04-25T11:51:33Z</time>
      </trkpt>
      <trkpt lat="48.51261" lon="3.10217">
        <ele>118.3</ele>
        <time>2021-04-25T11:51:39Z</time>
      </trkpt>
      <trkpt lat="48.51265" lon="3.1022">
        <ele>119</ele>
        <time>2021-04-25T11:51:44Z</time>
      </trkpt>
      <trkpt lat="48.5127" lon="3.10223">
        <ele>119.6</ele>
        <time>2021-04-25T11:51:50Z</time>
      </trkpt>
      <trkpt lat="48.51274" lon="3.10223">
        <ele>120.2</ele>
        <time>2021-04-25T11:51:55Z</time>
      </trkpt>
      <trkpt lat="48.51279" lon="3.10221">
        <ele>121.1</ele>
        <time>2021-04-25T11:52:00Z</time>
      </trkpt>
      <trkpt lat="48.51284" lon="3.10222">
        <ele>122.1</ele>
        <time>2021-04-25T11:52:07Z</time>
      </trkpt>
      <trkpt lat="48.51288" lon="3.10219">
        <ele>123.1</ele>
        <time>2021-04-25T11:52:13Z</time>
      </trkpt>
      <trkpt lat="48.51292" lon="3.10215">
        <ele>123.9</ele>
        <time>2021-04-25T11:52:18Z</time>
      </trkpt>
      <trkpt lat="48.51297" lon="3.10212">
        <ele>124.7</ele>
        <time>2021-04-25T11:52:23Z</time>
      </trkpt>
      <trkpt lat="48.51301" lon="3.10207">
        <ele>125.4</ele>
        <time>2021-04-25T11:52:28Z</time>
      </trkpt>
      <trkpt lat="48.51304" lon="3.102">
        <ele>126.4</ele>
        <time>2021-04-25T11:52:34Z</time>
      </trkpt>
      <trkpt lat="48.51307" lon="3.10194">
        <ele>127.1</ele>
        <time>2021-04-25T11:52:40Z</time>
      </trkpt>
      <trkpt lat="48.51309" lon="3.10188">
        <ele>127.5</ele>
        <time>2021-04-25T11:52:46Z</time>
      </trkpt>
      <trkpt lat="48.51311" lon="3.10181">
        <ele>127.9</ele>
        <time>2021-04-25T11:52:53Z</time>
      </trkpt>
      <trkpt lat="48.51314" lon="3.10175">
        <ele>128.1</ele>
        <time>2021-04-25T11:52:58Z</time>
      </trkpt>
      <trkpt lat="48.51315" lon="3.10168">
        <ele>128.1</ele>
        <time>2021-04-25T11:53:04Z</time>
      </trkpt>
      <trkpt lat="48.51315" lon="3.1016">
        <ele>127.9</ele>
        <time>2021-04-25T11:53:10Z</time>
      </trkpt>
      <trkpt lat="48.51319" lon="3.10154">
        <ele>127.6</ele>
        <time>2021-04-25T11:53:16Z</time>
      </trkpt>
      <trkpt lat="48.51322" lon="3.10149">
        <ele>127.7</ele>
        <time>2021-04-25T11:53:20Z</time>
      </trkpt>
      <trkpt lat="48.51324" lon="3.10143">
        <ele>127.9</ele>
        <time>2021-04-25T11:53:24Z</time>
      </trkpt>
      <trkpt lat="48.51326" lon="3.10137">
        <ele>128.3</ele>
        <time>2021-04-25T11:53:29Z</time>
      </trkpt>
      <trkpt lat="48.51328" lon="3.1013">
        <ele>128.7</ele>
        <time>2021-04-25T11:53:34Z</time>
      </trkpt>
      <trkpt lat="48.51331" lon="3.10123">
        <ele>128.9</ele>
        <time>2021-04-25T11:53:39Z</time>
      </trkpt>
      <trkpt lat="48.51333" lon="3.10118">
        <ele>129.3</ele>
        <time>2021-04-25T11:53:44Z</time>
      </trkpt>
      <trkpt lat="48.51335" lon="3.1011">
        <ele>129.8</ele>
        <time>2021-04-25T11:53:49Z</time>
      </trkpt>
      <trkpt lat="48.51335" lon="3.10103">
        <ele>130.1</ele>
        <time>2021-04-25T11:53:53Z</time>
      </trkpt>
      <trkpt lat="48.51338" lon="3.10097">
        <ele>130.3</ele>
        <time>2021-04-25T11:53:58Z</time>
      </trkpt>
      <trkpt lat="48.51342" lon="3.10093">
        <ele>130.4</ele>
        <time>2021-04-25T11:54:02Z</time>
      </trkpt>
      <trkpt lat="48.51348" lon="3.1009">
        <ele>130.5</ele>
        <time>2021-04-25T11:54:06Z</time>
      </trkpt>
      <trkpt lat="48.51353" lon="3.10089">
        <ele>130.7</ele>
        <time>2021-04-25T11:54:10Z</time>
      </trkpt>
      <trkpt lat="48.51358" lon="3.1009">
        <ele>130.7</ele>
        <time>2021-04-25T11:54:14Z</time>
      </trkpt>
      <trkpt lat="48.51362" lon="3.1009">
        <ele>130.7</ele>
        <time>2021-04-25T11:54:18Z</time>
      </trkpt>
      <trkpt lat="48.51367" lon="3.10092">
        <ele>130.6</ele>
        <time>2021-04-25T11:54:23Z</time>
      </trkpt>
      <trkpt lat="48.51372" lon="3.10096">
        <ele>129.6</ele>
        <time>2021-04-25T11:54:32Z</time>
      </trkpt>
      <trkpt lat="48.51376" lon="3.10099">
        <ele>129.4</ele>
        <time>2021-04-25T11:54:38Z</time>
      </trkpt>
      <trkpt lat="48.51381" lon="3.10101">
        <ele>129.2</ele>
        <time>2021-04-25T11:54:43Z</time>
      </trkpt>
      <trkpt lat="48.51385" lon="3.10103">
        <ele>128.8</ele>
        <time>2021-04-25T11:54:49Z</time>
      </trkpt>
      <trkpt lat="48.5139" lon="3.10106">
        <ele>128.7</ele>
        <time>2021-04-25T11:54:55Z</time>
      </trkpt>
      <trkpt lat="48.51395" lon="3.10109">
        <ele>128.6</ele>
        <time>2021-04-25T11:55:00Z</time>
      </trkpt>
      <trkpt lat="48.514" lon="3.10112">
        <ele>128.4</ele>
        <time>2021-04-25T11:55:04Z</time>
      </trkpt>
      <trkpt lat="48.51404" lon="3.10115">
        <ele>128.1</ele>
        <time>2021-04-25T11:55:09Z</time>
      </trkpt>
      <trkpt lat="48.51409" lon="3.10118">
        <ele>127.8</ele>
        <time>2021-04-25T11:55:14Z</time>
      </trkpt>
      <trkpt lat="48.51413" lon="3.10121">
        <ele>127.3</ele>
        <time>2021-04-25T11:55:20Z</time>
      </trkpt>
      <trkpt lat="48.51418" lon="3.10123">
        <ele>127.1</ele>
        <time>2021-04-25T11:55:24Z</time>
      </trkpt>
      <trkpt lat="48.51423" lon="3.10124">
        <ele>127</ele>
        <time>2021-04-25T11:55:28Z</time>
      </trkpt>
      <trkpt lat="48.51428" lon="3.10125">
        <ele>127.2</ele>
        <time>2021-04-25T11:55:34Z</time>
      </trkpt>
      <trkpt lat="48.51433" lon="3.10128">
        <ele>127.5</ele>
        <time>2021-04-25T11:55:40Z</time>
      </trkpt>
      <trkpt lat="48.51437" lon="3.10133">
        <ele>127.7</ele>
        <time>2021-04-25T11:55:46Z</time>
      </trkpt>
      <trkpt lat="48.51441" lon="3.10136">
        <ele>127.8</ele>
        <time>2021-04-25T11:55:51Z</time>
      </trkpt>
      <trkpt lat="48.51445" lon="3.10138">
        <ele>127.6</ele>
        <time>2021-04-25T11:55:55Z</time>
      </trkpt>
      <trkpt lat="48.51451" lon="3.10139">
        <ele>127.5</ele>
        <time>2021-04-25T11:56:00Z</time>
      </trkpt>
      <trkpt lat="48.51455" lon="3.10141">
        <ele>127.3</ele>
        <time>2021-04-25T11:56:05Z</time>
      </trkpt>
      <trkpt lat="48.5146" lon="3.10147">
        <ele>126.9</ele>
        <time>2021-04-25T11:56:10Z</time>
      </trkpt>
      <trkpt lat="48.51465" lon="3.1015">
        <ele>126.9</ele>
        <time>2021-04-25T11:56:15Z</time>
      </trkpt>
      <trkpt lat="48.51469" lon="3.10154">
        <ele>126.8</ele>
        <time>2021-04-25T11:56:19Z</time>
      </trkpt>
      <trkpt lat="48.51473" lon="3.10157">
        <ele>126.5</ele>
        <time>2021-04-25T11:56:25Z</time>
      </trkpt>
      <trkpt lat="48.51478" lon="3.10157">
        <ele>126.4</ele>
        <time>2021-04-25T11:56:30Z</time>
      </trkpt>
      <trkpt lat="48.51483" lon="3.10157">
        <ele>126.3</ele>
        <time>2021-04-25T11:56:34Z</time>
      </trkpt>
      <trkpt lat="48.51488" lon="3.1016">
        <ele>126.3</ele>
        <time>2021-04-25T11:56:38Z</time>
      </trkpt>
      <trkpt lat="48.51493" lon="3.10162">
        <ele>126.3</ele>
        <time>2021-04-25T11:56:41Z</time>
      </trkpt>
      <trkpt lat="48.51498" lon="3.10164">
        <ele>126.3</ele>
        <time>2021-04-25T11:56:45Z</time>
      </trkpt>
      <trkpt lat="48.51503" lon="3.10166">
        <ele>126.2</ele>
        <time>2021-04-25T11:56:49Z</time>
      </trkpt>
      <trkpt lat="48.51507" lon="3.10169">
        <ele>125.9</ele>
        <time>2021-04-25T11:56:54Z</time>
      </trkpt>
      <trkpt lat="48.51511" lon="3.10172">
        <ele>125.6</ele>
        <time>2021-04-25T11:56:59Z</time>
      </trkpt>
      <trkpt lat="48.51516" lon="3.10173">
        <ele>125.3</ele>
        <time>2021-04-25T11:57:04Z</time>
      </trkpt>
      <trkpt lat="48.51521" lon="3.10174">
        <ele>125.2</ele>
        <time>2021-04-25T11:57:08Z</time>
      </trkpt>
      <trkpt lat="48.51527" lon="3.10176">
        <ele>125.2</ele>
        <time>2021-04-25T11:57:12Z</time>
      </trkpt>
      <trkpt lat="48.51531" lon="3.10177">
        <ele>125.1</ele>
        <time>2021-04-25T11:57:16Z</time>
      </trkpt>
      <trkpt lat="48.51536" lon="3.10179">
        <ele>125.1</ele>
        <time>2021-04-25T11:57:20Z</time>
      </trkpt>
      <trkpt lat="48.51541" lon="3.10181">
        <ele>125.2</ele>
        <time>2021-04-25T11:57:25Z</time>
      </trkpt>
      <trkpt lat="48.51545" lon="3.10184">
        <ele>125.3</ele>
        <time>2021-04-25T11:57:29Z</time>
      </trkpt>
      <trkpt lat="48.5155" lon="3.10188">
        <ele>125.4</ele>
        <time>2021-04-25T11:57:33Z</time>
      </trkpt>
      <trkpt lat="48.51555" lon="3.10192">
        <ele>125.5</ele>
        <time>2021-04-25T11:57:37Z</time>
      </trkpt>
      <trkpt lat="48.51559" lon="3.10194">
        <ele>125.6</ele>
        <time>2021-04-25T11:57:40Z</time>
      </trkpt>
      <trkpt lat="48.51564" lon="3.10198">
        <ele>125.7</ele>
        <time>2021-04-25T11:57:44Z</time>
      </trkpt>
      <trkpt lat="48.51567" lon="3.10203">
        <ele>125.7</ele>
        <time>2021-04-25T11:57:48Z</time>
      </trkpt>
      <trkpt lat="48.51572" lon="3.10207">
        <ele>125.9</ele>
        <time>2021-04-25T11:57:53Z</time>
      </trkpt>
      <trkpt lat="48.51577" lon="3.10206">
        <ele>126</ele>
        <time>2021-04-25T11:57:59Z</time>
      </trkpt>
      <trkpt lat="48.51582" lon="3.10204">
        <ele>125.7</ele>
        <time>2021-04-25T11:58:05Z</time>
      </trkpt>
      <trkpt lat="48.51587" lon="3.10205">
        <ele>125.1</ele>
        <time>2021-04-25T11:58:10Z</time>
      </trkpt>
      <trkpt lat="48.51592" lon="3.10205">
        <ele>124.4</ele>
        <time>2021-04-25T11:58:16Z</time>
      </trkpt>
      <trkpt lat="48.51597" lon="3.10208">
        <ele>123.9</ele>
        <time>2021-04-25T11:58:22Z</time>
      </trkpt>
      <trkpt lat="48.51601" lon="3.10212">
        <ele>123.6</ele>
        <time>2021-04-25T11:58:26Z</time>
      </trkpt>
      <trkpt lat="48.51604" lon="3.10218">
        <ele>123.4</ele>
        <time>2021-04-25T11:58:31Z</time>
      </trkpt>
      <trkpt lat="48.51604" lon="3.10225">
        <ele>123.3</ele>
        <time>2021-04-25T11:58:37Z</time>
      </trkpt>
      <trkpt lat="48.51601" lon="3.10231">
        <ele>123.3</ele>
        <time>2021-04-25T11:58:43Z</time>
      </trkpt>
      <trkpt lat="48.51599" lon="3.10238">
        <ele>123.3</ele>
        <time>2021-04-25T11:58:48Z</time>
      </trkpt>
      <trkpt lat="48.51598" lon="3.10245">
        <ele>123.2</ele>
        <time>2021-04-25T11:58:53Z</time>
      </trkpt>
      <trkpt lat="48.51596" lon="3.10253">
        <ele>123.1</ele>
        <time>2021-04-25T11:58:58Z</time>
      </trkpt>
      <trkpt lat="48.51594" lon="3.10261">
        <ele>123</ele>
        <time>2021-04-25T11:59:03Z</time>
      </trkpt>
      <trkpt lat="48.51593" lon="3.10268">
        <ele>122.9</ele>
        <time>2021-04-25T11:59:07Z</time>
      </trkpt>
      <trkpt lat="48.51592" lon="3.10275">
        <ele>122.8</ele>
        <time>2021-04-25T11:59:11Z</time>
      </trkpt>
      <trkpt lat="48.5159" lon="3.10282">
        <ele>122.7</ele>
        <time>2021-04-25T11:59:15Z</time>
      </trkpt>
      <trkpt lat="48.51588" lon="3.10289">
        <ele>122.6</ele>
        <time>2021-04-25T11:59:20Z</time>
      </trkpt>
      <trkpt lat="48.51585" lon="3.10295">
        <ele>122.4</ele>
        <time>2021-04-25T11:59:25Z</time>
      </trkpt>
      <trkpt lat="48.51583" lon="3.10301">
        <ele>122.3</ele>
        <time>2021-04-25T11:59:30Z</time>
      </trkpt>
      <trkpt lat="48.5158" lon="3.10307">
        <ele>122.2</ele>
        <time>2021-04-25T11:59:35Z</time>
      </trkpt>
      <trkpt lat="48.51577" lon="3.10313">
        <ele>122</ele>
        <time>2021-04-25T11:59:40Z</time>
      </trkpt>
      <trkpt lat="48.51573" lon="3.10318">
        <ele>121.8</ele>
        <time>2021-04-25T11:59:44Z</time>
      </trkpt>
      <trkpt lat="48.51569" lon="3.10324">
        <ele>121.4</ele>
        <time>2021-04-25T11:59:48Z</time>
      </trkpt>
      <trkpt lat="48.51566" lon="3.1033">
        <ele>121.2</ele>
        <time>2021-04-25T11:59:52Z</time>
      </trkpt>
      <trkpt lat="48.51563" lon="3.10335">
        <ele>121.2</ele>
        <time>2021-04-25T11:59:56Z</time>
      </trkpt>
      <trkpt lat="48.51559" lon="3.10339">
        <ele>121.1</ele>
        <time>2021-04-25T12:00:01Z</time>
      </trkpt>
      <trkpt lat="48.51555" lon="3.10346">
        <ele>120.6</ele>
        <time>2021-04-25T12:00:06Z</time>
      </trkpt>
      <trkpt lat="48.51554" lon="3.10354">
        <ele>119.8</ele>
        <time>2021-04-25T12:00:11Z</time>
      </trkpt>
      <trkpt lat="48.51555" lon="3.10361">
        <ele>118.9</ele>
        <time>2021-04-25T12:00:16Z</time>
      </trkpt>
      <trkpt lat="48.51558" lon="3.10367">
        <ele>118.2</ele>
        <time>2021-04-25T12:00:21Z</time>
      </trkpt>
      <trkpt lat="48.5156" lon="3.10374">
        <ele>117.7</ele>
        <time>2021-04-25T12:00:26Z</time>
      </trkpt>
      <trkpt lat="48.5156" lon="3.10381">
        <ele>117.3</ele>
        <time>2021-04-25T12:00:30Z</time>
      </trkpt>
      <trkpt lat="48.51562" lon="3.10388">
        <ele>117</ele>
        <time>2021-04-25T12:00:35Z</time>
      </trkpt>
      <trkpt lat="48.51563" lon="3.10396">
        <ele>116.7</ele>
        <time>2021-04-25T12:00:40Z</time>
      </trkpt>
      <trkpt lat="48.51565" lon="3.10403">
        <ele>116.2</ele>
        <time>2021-04-25T12:00:45Z</time>
      </trkpt>
      <trkpt lat="48.51567" lon="3.1041">
        <ele>115.7</ele>
        <time>2021-04-25T12:00:50Z</time>
      </trkpt>
      <trkpt lat="48.51568" lon="3.10417">
        <ele>115.3</ele>
        <time>2021-04-25T12:00:54Z</time>
      </trkpt>
      <trkpt lat="48.5157" lon="3.10424">
        <ele>114.9</ele>
        <time>2021-04-25T12:00:58Z</time>
      </trkpt>
      <trkpt lat="48.51569" lon="3.10431">
        <ele>114.3</ele>
        <time>2021-04-25T12:01:04Z</time>
      </trkpt>
      <trkpt lat="48.5157" lon="3.10438">
        <ele>114.1</ele>
        <time>2021-04-25T12:01:10Z</time>
      </trkpt>
      <trkpt lat="48.5157" lon="3.10445">
        <ele>113.9</ele>
        <time>2021-04-25T12:01:14Z</time>
      </trkpt>
      <trkpt lat="48.5157" lon="3.10453">
        <ele>113.8</ele>
        <time>2021-04-25T12:01:18Z</time>
      </trkpt>
      <trkpt lat="48.5157" lon="3.10461">
        <ele>113.7</ele>
        <time>2021-04-25T12:01:22Z</time>
      </trkpt>
      <trkpt lat="48.51571" lon="3.1047">
        <ele>113.6</ele>
        <time>2021-04-25T12:01:26Z</time>
      </trkpt>
      <trkpt lat="48.51572" lon="3.10478">
        <ele>113.6</ele>
        <time>2021-04-25T12:01:30Z</time>
      </trkpt>
      <trkpt lat="48.51572" lon="3.10485">
        <ele>113.7</ele>
        <time>2021-04-25T12:01:34Z</time>
      </trkpt>
      <trkpt lat="48.51572" lon="3.10493">
        <ele>113.8</ele>
        <time>2021-04-25T12:01:39Z</time>
      </trkpt>
      <trkpt lat="48.51571" lon="3.105">
        <ele>113.7</ele>
        <time>2021-04-25T12:01:44Z</time>
      </trkpt>
      <trkpt lat="48.51569" lon="3.10506">
        <ele>113.8</ele>
        <time>2021-04-25T12:01:50Z</time>
      </trkpt>
      <trkpt lat="48.51567" lon="3.10513">
        <ele>113.8</ele>
        <time>2021-04-25T12:01:55Z</time>
      </trkpt>
      <trkpt lat="48.51567" lon="3.1052">
        <ele>113.7</ele>
        <time>2021-04-25T12:02:00Z</time>
      </trkpt>
      <trkpt lat="48.51567" lon="3.10527">
        <ele>113.6</ele>
        <time>2021-04-25T12:02:05Z</time>
      </trkpt>
      <trkpt lat="48.51567" lon="3.10534">
        <ele>113.5</ele>
        <time>2021-04-25T12:02:09Z</time>
      </trkpt>
      <trkpt lat="48.51568" lon="3.10541">
        <ele>113.5</ele>
        <time>2021-04-25T12:02:13Z</time>
      </trkpt>
      <trkpt lat="48.51566" lon="3.10549">
        <ele>113.5</ele>
        <time>2021-04-25T12:02:18Z</time>
      </trkpt>
      <trkpt lat="48.51564" lon="3.10555">
        <ele>113.5</ele>
        <time>2021-04-25T12:02:22Z</time>
      </trkpt>
      <trkpt lat="48.51563" lon="3.10563">
        <ele>113.7</ele>
        <time>2021-04-25T12:02:27Z</time>
      </trkpt>
      <trkpt lat="48.51562" lon="3.10571">
        <ele>113.9</ele>
        <time>2021-04-25T12:02:32Z</time>
      </trkpt>
      <trkpt lat="48.51562" lon="3.10578">
        <ele>114</ele>
        <time>2021-04-25T12:02:37Z</time>
      </trkpt>
      <trkpt lat="48.51562" lon="3.10586">
        <ele>114</ele>
        <time>2021-04-25T12:02:42Z</time>
      </trkpt>
      <trkpt lat="48.51561" lon="3.10594">
        <ele>113.9</ele>
        <time>2021-04-25T12:02:47Z</time>
      </trkpt>
      <trkpt lat="48.51561" lon="3.10602">
        <ele>113.8</ele>
        <time>2021-04-25T12:02:52Z</time>
      </trkpt>
      <trkpt lat="48.5156" lon="3.1061">
        <ele>113.8</ele>
        <time>2021-04-25T12:02:57Z</time>
      </trkpt>
      <trkpt lat="48.5156" lon="3.10618">
        <ele>113.7</ele>
        <time>2021-04-25T12:03:01Z</time>
      </trkpt>
      <trkpt lat="48.5156" lon="3.10625">
        <ele>113.6</ele>
        <time>2021-04-25T12:03:05Z</time>
      </trkpt>
      <trkpt lat="48.51558" lon="3.10633">
        <ele>113.7</ele>
        <time>2021-04-25T12:03:10Z</time>
      </trkpt>
      <trkpt lat="48.51558" lon="3.1064">
        <ele>114.1</ele>
        <time>2021-04-25T12:03:14Z</time>
      </trkpt>
      <trkpt lat="48.51559" lon="3.10648">
        <ele>114.7</ele>
        <time>2021-04-25T12:03:18Z</time>
      </trkpt>
      <trkpt lat="48.51561" lon="3.10656">
        <ele>115.6</ele>
        <time>2021-04-25T12:03:23Z</time>
      </trkpt>
      <trkpt lat="48.51564" lon="3.10661">
        <ele>116.2</ele>
        <time>2021-04-25T12:03:27Z</time>
      </trkpt>
      <trkpt lat="48.51568" lon="3.10665">
        <ele>116.7</ele>
        <time>2021-04-25T12:03:31Z</time>
      </trkpt>
      <trkpt lat="48.51573" lon="3.10669">
        <ele>117.6</ele>
        <time>2021-04-25T12:03:36Z</time>
      </trkpt>
      <trkpt lat="48.51577" lon="3.10672">
        <ele>118.3</ele>
        <time>2021-04-25T12:03:40Z</time>
      </trkpt>
      <trkpt lat="48.51582" lon="3.10676">
        <ele>118.9</ele>
        <time>2021-04-25T12:03:44Z</time>
      </trkpt>
      <trkpt lat="48.51587" lon="3.10678">
        <ele>119.6</ele>
        <time>2021-04-25T12:03:48Z</time>
      </trkpt>
      <trkpt lat="48.51591" lon="3.10679">
        <ele>120.2</ele>
        <time>2021-04-25T12:03:52Z</time>
      </trkpt>
      <trkpt lat="48.51596" lon="3.10682">
        <ele>121</ele>
        <time>2021-04-25T12:03:57Z</time>
      </trkpt>
      <trkpt lat="48.51601" lon="3.10685">
        <ele>122.2</ele>
        <time>2021-04-25T12:04:02Z</time>
      </trkpt>
      <trkpt lat="48.51605" lon="3.10682">
        <ele>123.3</ele>
        <time>2021-04-25T12:04:07Z</time>
      </trkpt>
      <trkpt lat="48.51609" lon="3.10678">
        <ele>124.1</ele>
        <time>2021-04-25T12:04:11Z</time>
      </trkpt>
      <trkpt lat="48.51613" lon="3.10673">
        <ele>124.9</ele>
        <time>2021-04-25T12:04:15Z</time>
      </trkpt>
      <trkpt lat="48.51616" lon="3.10669">
        <ele>125.7</ele>
        <time>2021-04-25T12:04:19Z</time>
      </trkpt>
      <trkpt lat="48.5162" lon="3.10664">
        <ele>126.4</ele>
        <time>2021-04-25T12:04:23Z</time>
      </trkpt>
      <trkpt lat="48.51624" lon="3.1066">
        <ele>126.9</ele>
        <time>2021-04-25T12:04:27Z</time>
      </trkpt>
      <trkpt lat="48.51628" lon="3.10658">
        <ele>127.3</ele>
        <time>2021-04-25T12:04:31Z</time>
      </trkpt>
      <trkpt lat="48.51634" lon="3.10656">
        <ele>127.8</ele>
        <time>2021-04-25T12:04:35Z</time>
      </trkpt>
      <trkpt lat="48.51639" lon="3.10654">
        <ele>128.5</ele>
        <time>2021-04-25T12:04:39Z</time>
      </trkpt>
      <trkpt lat="48.51645" lon="3.10652">
        <ele>129.2</ele>
        <time>2021-04-25T12:04:43Z</time>
      </trkpt>
      <trkpt lat="48.51649" lon="3.10649">
        <ele>129.2</ele>
        <time>2021-04-25T12:04:49Z</time>
      </trkpt>
      <trkpt lat="48.51653" lon="3.10645">
        <ele>129.2</ele>
        <time>2021-04-25T12:04:53Z</time>
      </trkpt>
      <trkpt lat="48.51656" lon="3.1064">
        <ele>129.4</ele>
        <time>2021-04-25T12:04:58Z</time>
      </trkpt>
      <trkpt lat="48.5166" lon="3.10633">
        <ele>129.7</ele>
        <time>2021-04-25T12:05:03Z</time>
      </trkpt>
      <trkpt lat="48.51661" lon="3.10625">
        <ele>130.3</ele>
        <time>2021-04-25T12:05:08Z</time>
      </trkpt>
      <trkpt lat="48.51661" lon="3.10617">
        <ele>130.3</ele>
        <time>2021-04-25T12:05:13Z</time>
      </trkpt>
      <trkpt lat="48.51661" lon="3.10609">
        <ele>130.2</ele>
        <time>2021-04-25T12:05:18Z</time>
      </trkpt>
      <trkpt lat="48.51661" lon="3.10602">
        <ele>130</ele>
        <time>2021-04-25T12:05:22Z</time>
      </trkpt>
      <trkpt lat="48.51661" lon="3.10595">
        <ele>129.7</ele>
        <time>2021-04-25T12:05:26Z</time>
      </trkpt>
      <trkpt lat="48.51663" lon="3.10588">
        <ele>129.4</ele>
        <time>2021-04-25T12:05:30Z</time>
      </trkpt>
      <trkpt lat="48.51663" lon="3.1058">
        <ele>129</ele>
        <time>2021-04-25T12:05:35Z</time>
      </trkpt>
      <trkpt lat="48.51664" lon="3.10572">
        <ele>128.1</ele>
        <time>2021-04-25T12:05:40Z</time>
      </trkpt>
      <trkpt lat="48.51665" lon="3.10565">
        <ele>127.6</ele>
        <time>2021-04-25T12:05:44Z</time>
      </trkpt>
      <trkpt lat="48.51667" lon="3.10558">
        <ele>126.9</ele>
        <time>2021-04-25T12:05:49Z</time>
      </trkpt>
      <trkpt lat="48.51667" lon="3.1055">
        <ele>126.2</ele>
        <time>2021-04-25T12:05:54Z</time>
      </trkpt>
      <trkpt lat="48.51668" lon="3.10542">
        <ele>125.7</ele>
        <time>2021-04-25T12:05:59Z</time>
      </trkpt>
      <trkpt lat="48.51671" lon="3.10535">
        <ele>125.4</ele>
        <time>2021-04-25T12:06:04Z</time>
      </trkpt>
      <trkpt lat="48.51673" lon="3.10528">
        <ele>125.1</ele>
        <time>2021-04-25T12:06:08Z</time>
      </trkpt>
      <trkpt lat="48.51673" lon="3.10521">
        <ele>124.6</ele>
        <time>2021-04-25T12:06:12Z</time>
      </trkpt>
      <trkpt lat="48.51675" lon="3.10514">
        <ele>124.3</ele>
        <time>2021-04-25T12:06:16Z</time>
      </trkpt>
      <trkpt lat="48.51676" lon="3.10507">
        <ele>124.2</ele>
        <time>2021-04-25T12:06:20Z</time>
      </trkpt>
      <trkpt lat="48.51678" lon="3.105">
        <ele>124</ele>
        <time>2021-04-25T12:06:25Z</time>
      </trkpt>
      <trkpt lat="48.51681" lon="3.10493">
        <ele>123.9</ele>
        <time>2021-04-25T12:06:30Z</time>
      </trkpt>
      <trkpt lat="48.51684" lon="3.10486">
        <ele>123.9</ele>
        <time>2021-04-25T12:06:34Z</time>
      </trkpt>
      <trkpt lat="48.51686" lon="3.1048">
        <ele>123.7</ele>
        <time>2021-04-25T12:06:38Z</time>
      </trkpt>
      <trkpt lat="48.51689" lon="3.10474">
        <ele>123.7</ele>
        <time>2021-04-25T12:06:42Z</time>
      </trkpt>
      <trkpt lat="48.51693" lon="3.10469">
        <ele>123.7</ele>
        <time>2021-04-25T12:06:46Z</time>
      </trkpt>
      <trkpt lat="48.51697" lon="3.10463">
        <ele>123.7</ele>
        <time>2021-04-25T12:06:50Z</time>
      </trkpt>
      <trkpt lat="48.51701" lon="3.10458">
        <ele>123.7</ele>
        <time>2021-04-25T12:06:54Z</time>
      </trkpt>
      <trkpt lat="48.51705" lon="3.10453">
        <ele>123.7</ele>
        <time>2021-04-25T12:06:58Z</time>
      </trkpt>
      <trkpt lat="48.51708" lon="3.10447">
        <ele>123.6</ele>
        <time>2021-04-25T12:07:02Z</time>
      </trkpt>
      <trkpt lat="48.5171" lon="3.1044">
        <ele>123.6</ele>
        <time>2021-04-25T12:07:06Z</time>
      </trkpt>
      <trkpt lat="48.51713" lon="3.10433">
        <ele>123.4</ele>
        <time>2021-04-25T12:07:11Z</time>
      </trkpt>
      <trkpt lat="48.51715" lon="3.10427">
        <ele>123</ele>
        <time>2021-04-25T12:07:16Z</time>
      </trkpt>
      <trkpt lat="48.51715" lon="3.1042">
        <ele>122.3</ele>
        <time>2021-04-25T12:07:21Z</time>
      </trkpt>
      <trkpt lat="48.51713" lon="3.10412">
        <ele>121.5</ele>
        <time>2021-04-25T12:07:26Z</time>
      </trkpt>
      <trkpt lat="48.51711" lon="3.10406">
        <ele>121</ele>
        <time>2021-04-25T12:07:30Z</time>
      </trkpt>
      <trkpt lat="48.51709" lon="3.10399">
        <ele>120.4</ele>
        <time>2021-04-25T12:07:35Z</time>
      </trkpt>
      <trkpt lat="48.51709" lon="3.10391">
        <ele>120</ele>
        <time>2021-04-25T12:07:40Z</time>
      </trkpt>
      <trkpt lat="48.5171" lon="3.10383">
        <ele>119.7</ele>
        <time>2021-04-25T12:07:44Z</time>
      </trkpt>
      <trkpt lat="48.51711" lon="3.10375">
        <ele>119.5</ele>
        <time>2021-04-25T12:07:48Z</time>
      </trkpt>
      <trkpt lat="48.51714" lon="3.10369">
        <ele>119.4</ele>
        <time>2021-04-25T12:07:52Z</time>
      </trkpt>
      <trkpt lat="48.51718" lon="3.10364">
        <ele>119.3</ele>
        <time>2021-04-25T12:07:56Z</time>
      </trkpt>
      <trkpt lat="48.51723" lon="3.10362">
        <ele>119.1</ele>
        <time>2021-04-25T12:08:00Z</time>
      </trkpt>
      <trkpt lat="48.51728" lon="3.1036">
        <ele>118.8</ele>
        <time>2021-04-25T12:08:05Z</time>
      </trkpt>
      <trkpt lat="48.51733" lon="3.10357">
        <ele>118.5</ele>
        <time>2021-04-25T12:08:09Z</time>
      </trkpt>
      <trkpt lat="48.51737" lon="3.10354">
        <ele>118.1</ele>
        <time>2021-04-25T12:08:14Z</time>
      </trkpt>
      <trkpt lat="48.51742" lon="3.10352">
        <ele>117.8</ele>
        <time>2021-04-25T12:08:18Z</time>
      </trkpt>
      <trkpt lat="48.51747" lon="3.10349">
        <ele>117.3</ele>
        <time>2021-04-25T12:08:23Z</time>
      </trkpt>
      <trkpt lat="48.51751" lon="3.10345">
        <ele>116.8</ele>
        <time>2021-04-25T12:08:28Z</time>
      </trkpt>
      <trkpt lat="48.51757" lon="3.10342">
        <ele>116.2</ele>
        <time>2021-04-25T12:08:33Z</time>
      </trkpt>
      <trkpt lat="48.51762" lon="3.10341">
        <ele>115.6</ele>
        <time>2021-04-25T12:08:37Z</time>
      </trkpt>
      <trkpt lat="48.51767" lon="3.1034">
        <ele>115.2</ele>
        <time>2021-04-25T12:08:41Z</time>
      </trkpt>
      <trkpt lat="48.51772" lon="3.10338">
        <ele>114.6</ele>
        <time>2021-04-25T12:08:46Z</time>
      </trkpt>
      <trkpt lat="48.51777" lon="3.10335">
        <ele>113.8</ele>
        <time>2021-04-25T12:08:51Z</time>
      </trkpt>
      <trkpt lat="48.51782" lon="3.10336">
        <ele>113.3</ele>
        <time>2021-04-25T12:08:56Z</time>
      </trkpt>
      <trkpt lat="48.51787" lon="3.10336">
        <ele>113.2</ele>
        <time>2021-04-25T12:09:01Z</time>
      </trkpt>
      <trkpt lat="48.51792" lon="3.10334">
        <ele>113.1</ele>
        <time>2021-04-25T12:09:06Z</time>
      </trkpt>
      <trkpt lat="48.51798" lon="3.10334">
        <ele>112.9</ele>
        <time>2021-04-25T12:09:11Z</time>
      </trkpt>
      <trkpt lat="48.51803" lon="3.10333">
        <ele>112.7</ele>
        <time>2021-04-25T12:09:16Z</time>
      </trkpt>
      <trkpt lat="48.51808" lon="3.10335">
        <ele>112.5</ele>
        <time>2021-04-25T12:09:20Z</time>
      </trkpt>
      <trkpt lat="48.51813" lon="3.10338">
        <ele>112.4</ele>
        <time>2021-04-25T12:09:24Z</time>
      </trkpt>
      <trkpt lat="48.51818" lon="3.10341">
        <ele>112.4</ele>
        <time>2021-04-25T12:09:28Z</time>
      </trkpt>
      <trkpt lat="48.51822" lon="3.10345">
        <ele>112.5</ele>
        <time>2021-04-25T12:09:33Z</time>
      </trkpt>
      <trkpt lat="48.51827" lon="3.10347">
        <ele>112.6</ele>
        <time>2021-04-25T12:09:37Z</time>
      </trkpt>
      <trkpt lat="48.51832" lon="3.10351">
        <ele>112.7</ele>
        <time>2021-04-25T12:09:41Z</time>
      </trkpt>
      <trkpt lat="48.51837" lon="3.10354">
        <ele>112.7</ele>
        <time>2021-04-25T12:09:45Z</time>
      </trkpt>
      <trkpt lat="48.51841" lon="3.10357">
        <ele>112.8</ele>
        <time>2021-04-25T12:09:49Z</time>
      </trkpt>
      <trkpt lat="48.51846" lon="3.10361">
        <ele>112.8</ele>
        <time>2021-04-25T12:09:53Z</time>
      </trkpt>
      <trkpt lat="48.51851" lon="3.10364">
        <ele>112.9</ele>
        <time>2021-04-25T12:09:57Z</time>
      </trkpt>
      <trkpt lat="48.51855" lon="3.10367">
        <ele>112.9</ele>
        <time>2021-04-25T12:10:01Z</time>
      </trkpt>
      <trkpt lat="48.5186" lon="3.10371">
        <ele>112.9</ele>
        <time>2021-04-25T12:10:06Z</time>
      </trkpt>
      <trkpt lat="48.51864" lon="3.10375">
        <ele>112.7</ele>
        <time>2021-04-25T12:10:11Z</time>
      </trkpt>
      <trkpt lat="48.51869" lon="3.10379">
        <ele>112.6</ele>
        <time>2021-04-25T12:10:16Z</time>
      </trkpt>
      <trkpt lat="48.51873" lon="3.10382">
        <ele>112.4</ele>
        <time>2021-04-25T12:10:21Z</time>
      </trkpt>
      <trkpt lat="48.51878" lon="3.10386">
        <ele>112.3</ele>
        <time>2021-04-25T12:10:25Z</time>
      </trkpt>
      <trkpt lat="48.51883" lon="3.1039">
        <ele>112.1</ele>
        <time>2021-04-25T12:10:29Z</time>
      </trkpt>
      <trkpt lat="48.51887" lon="3.10393">
        <ele>111.9</ele>
        <time>2021-04-25T12:10:33Z</time>
      </trkpt>
      <trkpt lat="48.51891" lon="3.10399">
        <ele>111.8</ele>
        <time>2021-04-25T12:10:38Z</time>
      </trkpt>
      <trkpt lat="48.51895" lon="3.10404">
        <ele>111.7</ele>
        <time>2021-04-25T12:10:44Z</time>
      </trkpt>
      <trkpt lat="48.51897" lon="3.1041">
        <ele>111.8</ele>
        <time>2021-04-25T12:10:49Z</time>
      </trkpt>
      <trkpt lat="48.51901" lon="3.10416">
        <ele>111.9</ele>
        <time>2021-04-25T12:10:55Z</time>
      </trkpt>
      <trkpt lat="48.51905" lon="3.10421">
        <ele>112</ele>
        <time>2021-04-25T12:11:00Z</time>
      </trkpt>
      <trkpt lat="48.51908" lon="3.10427">
        <ele>112.1</ele>
        <time>2021-04-25T12:11:04Z</time>
      </trkpt>
      <trkpt lat="48.5191" lon="3.10433">
        <ele>112.3</ele>
        <time>2021-04-25T12:11:07Z</time>
      </trkpt>
      <trkpt lat="48.51913" lon="3.10439">
        <ele>112.6</ele>
        <time>2021-04-25T12:11:11Z</time>
      </trkpt>
      <trkpt lat="48.51916" lon="3.10446">
        <ele>113.9</ele>
        <time>2021-04-25T12:11:16Z</time>
      </trkpt>
      <trkpt lat="48.51918" lon="3.10453">
        <ele>115.2</ele>
        <time>2021-04-25T12:11:20Z</time>
      </trkpt>
      <trkpt lat="48.51921" lon="3.10458">
        <ele>117.7</ele>
        <time>2021-04-25T12:11:27Z</time>
      </trkpt>
      <trkpt lat="48.51924" lon="3.10464">
        <ele>120.1</ele>
        <time>2021-04-25T12:11:36Z</time>
      </trkpt>
      <trkpt lat="48.51927" lon="3.1047">
        <ele>120.9</ele>
        <time>2021-04-25T12:11:41Z</time>
      </trkpt>
      <trkpt lat="48.51931" lon="3.10474">
        <ele>122.2</ele>
        <time>2021-04-25T12:12:04Z</time>
      </trkpt>
      <trkpt lat="48.51935" lon="3.10478">
        <ele>122.7</ele>
        <time>2021-04-25T12:12:09Z</time>
      </trkpt>
      <trkpt lat="48.51939" lon="3.10482">
        <ele>123</ele>
        <time>2021-04-25T12:12:12Z</time>
      </trkpt>
      <trkpt lat="48.51943" lon="3.10486">
        <ele>123.6</ele>
        <time>2021-04-25T12:12:16Z</time>
      </trkpt>
      <trkpt lat="48.51948" lon="3.10489">
        <ele>124</ele>
        <time>2021-04-25T12:12:20Z</time>
      </trkpt>
      <trkpt lat="48.51953" lon="3.10492">
        <ele>124.4</ele>
        <time>2021-04-25T12:12:24Z</time>
      </trkpt>
      <trkpt lat="48.51957" lon="3.10494">
        <ele>124.9</ele>
        <time>2021-04-25T12:12:29Z</time>
      </trkpt>
      <trkpt lat="48.51961" lon="3.10499">
        <ele>125.5</ele>
        <time>2021-04-25T12:12:34Z</time>
      </trkpt>
      <trkpt lat="48.51965" lon="3.10504">
        <ele>126.2</ele>
        <time>2021-04-25T12:12:40Z</time>
      </trkpt>
      <trkpt lat="48.51969" lon="3.10506">
        <ele>127</ele>
        <time>2021-04-25T12:12:46Z</time>
      </trkpt>
      <trkpt lat="48.51975" lon="3.10508">
        <ele>127.6</ele>
        <time>2021-04-25T12:12:51Z</time>
      </trkpt>
      <trkpt lat="48.5198" lon="3.1051">
        <ele>128.2</ele>
        <time>2021-04-25T12:12:56Z</time>
      </trkpt>
      <trkpt lat="48.51984" lon="3.10512">
        <ele>129.1</ele>
        <time>2021-04-25T12:13:02Z</time>
      </trkpt>
      <trkpt lat="48.5199" lon="3.10512">
        <ele>129.8</ele>
        <time>2021-04-25T12:13:08Z</time>
      </trkpt>
      <trkpt lat="48.51995" lon="3.10512">
        <ele>130.2</ele>
        <time>2021-04-25T12:13:12Z</time>
      </trkpt>
      <trkpt lat="48.52" lon="3.10512">
        <ele>130.5</ele>
        <time>2021-04-25T12:13:16Z</time>
      </trkpt>
      <trkpt lat="48.52004" lon="3.10513">
        <ele>130.9</ele>
        <time>2021-04-25T12:13:21Z</time>
      </trkpt>
      <trkpt lat="48.52009" lon="3.10513">
        <ele>131.3</ele>
        <time>2021-04-25T12:13:26Z</time>
      </trkpt>
      <trkpt lat="48.52014" lon="3.10513">
        <ele>131.5</ele>
        <time>2021-04-25T12:13:30Z</time>
      </trkpt>
      <trkpt lat="48.52019" lon="3.10512">
        <ele>131.6</ele>
        <time>2021-04-25T12:13:33Z</time>
      </trkpt>
      <trkpt lat="48.52024" lon="3.10513">
        <ele>131.8</ele>
        <time>2021-04-25T12:13:36Z</time>
      </trkpt>
      <trkpt lat="48.52028" lon="3.10516">
        <ele>132</ele>
        <time>2021-04-25T12:13:39Z</time>
      </trkpt>
      <trkpt lat="48.52032" lon="3.10521">
        <ele>131.9</ele>
        <time>2021-04-25T12:13:42Z</time>
      </trkpt>
      <trkpt lat="48.52035" lon="3.10527">
        <ele>131.7</ele>
        <time>2021-04-25T12:13:46Z</time>
      </trkpt>
      <trkpt lat="48.52038" lon="3.10533">
        <ele>131.4</ele>
        <time>2021-04-25T12:13:51Z</time>
      </trkpt>
      <trkpt lat="48.52039" lon="3.10541">
        <ele>131</ele>
        <time>2021-04-25T12:13:56Z</time>
      </trkpt>
      <trkpt lat="48.52039" lon="3.10549">
        <ele>130.6</ele>
        <time>2021-04-25T12:14:01Z</time>
      </trkpt>
      <trkpt lat="48.5204" lon="3.10557">
        <ele>130.2</ele>
        <time>2021-04-25T12:14:06Z</time>
      </trkpt>
      <trkpt lat="48.5204" lon="3.10565">
        <ele>129.9</ele>
        <time>2021-04-25T12:14:10Z</time>
      </trkpt>
      <trkpt lat="48.5204" lon="3.10573">
        <ele>129.5</ele>
        <time>2021-04-25T12:14:14Z</time>
      </trkpt>
      <trkpt lat="48.52042" lon="3.1058">
        <ele>128.8</ele>
        <time>2021-04-25T12:14:20Z</time>
      </trkpt>
      <trkpt lat="48.52046" lon="3.10584">
        <ele>128.4</ele>
        <time>2021-04-25T12:14:27Z</time>
      </trkpt>
      <trkpt lat="48.52052" lon="3.10584">
        <ele>128.4</ele>
        <time>2021-04-25T12:14:32Z</time>
      </trkpt>
      <trkpt lat="48.52056" lon="3.10583">
        <ele>128.3</ele>
        <time>2021-04-25T12:14:36Z</time>
      </trkpt>
      <trkpt lat="48.52061" lon="3.10582">
        <ele>128.3</ele>
        <time>2021-04-25T12:14:40Z</time>
      </trkpt>
      <trkpt lat="48.52066" lon="3.10581">
        <ele>128.1</ele>
        <time>2021-04-25T12:14:44Z</time>
      </trkpt>
      <trkpt lat="48.52071" lon="3.10579">
        <ele>128</ele>
        <time>2021-04-25T12:14:54Z</time>
      </trkpt>
      <trkpt lat="48.52076" lon="3.10578">
        <ele>127.9</ele>
        <time>2021-04-25T12:15:00Z</time>
      </trkpt>
      <trkpt lat="48.52081" lon="3.1058">
        <ele>128.1</ele>
        <time>2021-04-25T12:15:05Z</time>
      </trkpt>
      <trkpt lat="48.52085" lon="3.10579">
        <ele>128.5</ele>
        <time>2021-04-25T12:15:10Z</time>
      </trkpt>
      <trkpt lat="48.5209" lon="3.10577">
        <ele>128.7</ele>
        <time>2021-04-25T12:15:15Z</time>
      </trkpt>
      <trkpt lat="48.52095" lon="3.10574">
        <ele>129</ele>
        <time>2021-04-25T12:15:20Z</time>
      </trkpt>
      <trkpt lat="48.521" lon="3.10571">
        <ele>129</ele>
        <time>2021-04-25T12:15:24Z</time>
      </trkpt>
      <trkpt lat="48.52105" lon="3.10568">
        <ele>128.9</ele>
        <time>2021-04-25T12:15:28Z</time>
      </trkpt>
      <trkpt lat="48.5211" lon="3.10566">
        <ele>128.8</ele>
        <time>2021-04-25T12:15:32Z</time>
      </trkpt>
      <trkpt lat="48.52115" lon="3.10565">
        <ele>128.7</ele>
        <time>2021-04-25T12:15:38Z</time>
      </trkpt>
      <trkpt lat="48.52121" lon="3.10563">
        <ele>128.7</ele>
        <time>2021-04-25T12:15:43Z</time>
      </trkpt>
      <trkpt lat="48.52125" lon="3.10561">
        <ele>128.7</ele>
        <time>2021-04-25T12:15:47Z</time>
      </trkpt>
      <trkpt lat="48.5213" lon="3.10559">
        <ele>128.7</ele>
        <time>2021-04-25T12:15:51Z</time>
      </trkpt>
      <trkpt lat="48.52134" lon="3.10554">
        <ele>128.6</ele>
        <time>2021-04-25T12:15:56Z</time>
      </trkpt>
      <trkpt lat="48.52138" lon="3.10549">
        <ele>128.3</ele>
        <time>2021-04-25T12:16:00Z</time>
      </trkpt>
      <trkpt lat="48.52142" lon="3.10545">
        <ele>128</ele>
        <time>2021-04-25T12:16:05Z</time>
      </trkpt>
      <trkpt lat="48.52146" lon="3.1054">
        <ele>127.8</ele>
        <time>2021-04-25T12:16:09Z</time>
      </trkpt>
      <trkpt lat="48.52151" lon="3.10535">
        <ele>127.8</ele>
        <time>2021-04-25T12:16:13Z</time>
      </trkpt>
      <trkpt lat="48.52154" lon="3.1053">
        <ele>127.7</ele>
        <time>2021-04-25T12:16:17Z</time>
      </trkpt>
      <trkpt lat="48.52159" lon="3.10527">
        <ele>127.7</ele>
        <time>2021-04-25T12:16:22Z</time>
      </trkpt>
      <trkpt lat="48.52164" lon="3.10524">
        <ele>127.6</ele>
        <time>2021-04-25T12:16:29Z</time>
      </trkpt>
      <trkpt lat="48.52169" lon="3.10521">
        <ele>127.6</ele>
        <time>2021-04-25T12:16:34Z</time>
      </trkpt>
      <trkpt lat="48.52174" lon="3.10518">
        <ele>127.8</ele>
        <time>2021-04-25T12:16:38Z</time>
      </trkpt>
      <trkpt lat="48.52179" lon="3.10513">
        <ele>128</ele>
        <time>2021-04-25T12:16:42Z</time>
      </trkpt>
      <trkpt lat="48.52183" lon="3.10509">
        <ele>128.1</ele>
        <time>2021-04-25T12:16:45Z</time>
      </trkpt>
      <trkpt lat="48.52186" lon="3.10504">
        <ele>128.2</ele>
        <time>2021-04-25T12:16:48Z</time>
      </trkpt>
      <trkpt lat="48.52191" lon="3.10499">
        <ele>128.2</ele>
        <time>2021-04-25T12:16:52Z</time>
      </trkpt>
      <trkpt lat="48.52195" lon="3.10494">
        <ele>127.9</ele>
        <time>2021-04-25T12:16:56Z</time>
      </trkpt>
      <trkpt lat="48.52198" lon="3.10489">
        <ele>127.2</ele>
        <time>2021-04-25T12:17:01Z</time>
      </trkpt>
      <trkpt lat="48.52203" lon="3.10486">
        <ele>126.6</ele>
        <time>2021-04-25T12:17:06Z</time>
      </trkpt>
      <trkpt lat="48.52208" lon="3.10481">
        <ele>126.6</ele>
        <time>2021-04-25T12:17:11Z</time>
      </trkpt>
      <trkpt lat="48.52212" lon="3.10477">
        <ele>126.8</ele>
        <time>2021-04-25T12:17:15Z</time>
      </trkpt>
      <trkpt lat="48.52217" lon="3.10474">
        <ele>127.2</ele>
        <time>2021-04-25T12:17:20Z</time>
      </trkpt>
      <trkpt lat="48.52222" lon="3.10472">
        <ele>127.3</ele>
        <time>2021-04-25T12:17:24Z</time>
      </trkpt>
      <trkpt lat="48.52227" lon="3.10471">
        <ele>127.4</ele>
        <time>2021-04-25T12:17:28Z</time>
      </trkpt>
      <trkpt lat="48.52232" lon="3.10467">
        <ele>127.6</ele>
        <time>2021-04-25T12:17:33Z</time>
      </trkpt>
      <trkpt lat="48.52237" lon="3.10462">
        <ele>127.8</ele>
        <time>2021-04-25T12:17:38Z</time>
      </trkpt>
      <trkpt lat="48.5224" lon="3.10458">
        <ele>127.8</ele>
        <time>2021-04-25T12:17:42Z</time>
      </trkpt>
      <trkpt lat="48.52245" lon="3.10454">
        <ele>127.9</ele>
        <time>2021-04-25T12:17:46Z</time>
      </trkpt>
      <trkpt lat="48.52249" lon="3.10451">
        <ele>127.8</ele>
        <time>2021-04-25T12:17:50Z</time>
      </trkpt>
      <trkpt lat="48.52253" lon="3.10447">
        <ele>127.7</ele>
        <time>2021-04-25T12:17:54Z</time>
      </trkpt>
      <trkpt lat="48.52257" lon="3.10442">
        <ele>127.9</ele>
        <time>2021-04-25T12:17:59Z</time>
      </trkpt>
      <trkpt lat="48.52261" lon="3.10436">
        <ele>128</ele>
        <time>2021-04-25T12:18:04Z</time>
      </trkpt>
      <trkpt lat="48.52265" lon="3.10431">
        <ele>128.1</ele>
        <time>2021-04-25T12:18:08Z</time>
      </trkpt>
      <trkpt lat="48.52269" lon="3.10427">
        <ele>128</ele>
        <time>2021-04-25T12:18:12Z</time>
      </trkpt>
      <trkpt lat="48.52273" lon="3.10424">
        <ele>128.1</ele>
        <time>2021-04-25T12:18:16Z</time>
      </trkpt>
      <trkpt lat="48.52277" lon="3.10421">
        <ele>128.2</ele>
        <time>2021-04-25T12:18:20Z</time>
      </trkpt>
      <trkpt lat="48.52282" lon="3.10418">
        <ele>128.3</ele>
        <time>2021-04-25T12:18:25Z</time>
      </trkpt>
      <trkpt lat="48.52287" lon="3.10414">
        <ele>128.4</ele>
        <time>2021-04-25T12:18:29Z</time>
      </trkpt>
      <trkpt lat="48.52291" lon="3.1041">
        <ele>128.5</ele>
        <time>2021-04-25T12:18:33Z</time>
      </trkpt>
      <trkpt lat="48.52296" lon="3.10407">
        <ele>128.4</ele>
        <time>2021-04-25T12:18:37Z</time>
      </trkpt>
      <trkpt lat="48.523" lon="3.10405">
        <ele>128.3</ele>
        <time>2021-04-25T12:18:41Z</time>
      </trkpt>
      <trkpt lat="48.52305" lon="3.10401">
        <ele>128.4</ele>
        <time>2021-04-25T12:18:45Z</time>
      </trkpt>
      <trkpt lat="48.52309" lon="3.10397">
        <ele>128.6</ele>
        <time>2021-04-25T12:18:49Z</time>
      </trkpt>
      <trkpt lat="48.52312" lon="3.10393">
        <ele>128.7</ele>
        <time>2021-04-25T12:18:54Z</time>
      </trkpt>
      <trkpt lat="48.52317" lon="3.10389">
        <ele>128.8</ele>
        <time>2021-04-25T12:18:59Z</time>
      </trkpt>
      <trkpt lat="48.52322" lon="3.10386">
        <ele>128.7</ele>
        <time>2021-04-25T12:19:03Z</time>
      </trkpt>
      <trkpt lat="48.52327" lon="3.10385">
        <ele>128.6</ele>
        <time>2021-04-25T12:19:07Z</time>
      </trkpt>
      <trkpt lat="48.52331" lon="3.10383">
        <ele>128.5</ele>
        <time>2021-04-25T12:19:11Z</time>
      </trkpt>
      <trkpt lat="48.52336" lon="3.10379">
        <ele>128.7</ele>
        <time>2021-04-25T12:19:16Z</time>
      </trkpt>
      <trkpt lat="48.52341" lon="3.10377">
        <ele>129</ele>
        <time>2021-04-25T12:19:20Z</time>
      </trkpt>
      <trkpt lat="48.52345" lon="3.10373">
        <ele>129</ele>
        <time>2021-04-25T12:19:24Z</time>
      </trkpt>
      <trkpt lat="48.5235" lon="3.10373">
        <ele>129.4</ele>
        <time>2021-04-25T12:19:29Z</time>
      </trkpt>
      <trkpt lat="48.52356" lon="3.10372">
        <ele>129.9</ele>
        <time>2021-04-25T12:19:33Z</time>
      </trkpt>
      <trkpt lat="48.52361" lon="3.10371">
        <ele>130.3</ele>
        <time>2021-04-25T12:19:37Z</time>
      </trkpt>
      <trkpt lat="48.52365" lon="3.10369">
        <ele>130.9</ele>
        <time>2021-04-25T12:19:41Z</time>
      </trkpt>
      <trkpt lat="48.5237" lon="3.10367">
        <ele>131.6</ele>
        <time>2021-04-25T12:19:45Z</time>
      </trkpt>
      <trkpt lat="48.52375" lon="3.10366">
        <ele>132.2</ele>
        <time>2021-04-25T12:19:49Z</time>
      </trkpt>
      <trkpt lat="48.5238" lon="3.10364">
        <ele>132.3</ele>
        <time>2021-04-25T12:19:53Z</time>
      </trkpt>
      <trkpt lat="48.52385" lon="3.10362">
        <ele>132.4</ele>
        <time>2021-04-25T12:19:57Z</time>
      </trkpt>
      <trkpt lat="48.52389" lon="3.10358">
        <ele>132.4</ele>
        <time>2021-04-25T12:20:01Z</time>
      </trkpt>
      <trkpt lat="48.52393" lon="3.10354">
        <ele>132.7</ele>
        <time>2021-04-25T12:20:09Z</time>
      </trkpt>
      <trkpt lat="48.52397" lon="3.1035">
        <ele>132.5</ele>
        <time>2021-04-25T12:20:14Z</time>
      </trkpt>
      <trkpt lat="48.52402" lon="3.10349">
        <ele>132.3</ele>
        <time>2021-04-25T12:20:18Z</time>
      </trkpt>
      <trkpt lat="48.52407" lon="3.10347">
        <ele>132</ele>
        <time>2021-04-25T12:20:23Z</time>
      </trkpt>
      <trkpt lat="48.52412" lon="3.10344">
        <ele>131.7</ele>
        <time>2021-04-25T12:20:27Z</time>
      </trkpt>
      <trkpt lat="48.52417" lon="3.10341">
        <ele>131.2</ele>
        <time>2021-04-25T12:20:32Z</time>
      </trkpt>
      <trkpt lat="48.52422" lon="3.10341">
        <ele>130.6</ele>
        <time>2021-04-25T12:20:36Z</time>
      </trkpt>
      <trkpt lat="48.52427" lon="3.1034">
        <ele>130</ele>
        <time>2021-04-25T12:20:40Z</time>
      </trkpt>
      <trkpt lat="48.52432" lon="3.10336">
        <ele>129.2</ele>
        <time>2021-04-25T12:20:44Z</time>
      </trkpt>
      <trkpt lat="48.52436" lon="3.10331">
        <ele>128.2</ele>
        <time>2021-04-25T12:20:48Z</time>
      </trkpt>
      <trkpt lat="48.52441" lon="3.10328">
        <ele>127.5</ele>
        <time>2021-04-25T12:20:53Z</time>
      </trkpt>
      <trkpt lat="48.52445" lon="3.10326">
        <ele>127.1</ele>
        <time>2021-04-25T12:20:57Z</time>
      </trkpt>
      <trkpt lat="48.5245" lon="3.10325">
        <ele>125.8</ele>
        <time>2021-04-25T12:21:11Z</time>
      </trkpt>
      <trkpt lat="48.52454" lon="3.10322">
        <ele>125.2</ele>
        <time>2021-04-25T12:21:15Z</time>
      </trkpt>
      <trkpt lat="48.52459" lon="3.1032">
        <ele>125.1</ele>
        <time>2021-04-25T12:21:20Z</time>
      </trkpt>
      <trkpt lat="48.52464" lon="3.10322">
        <ele>126</ele>
        <time>2021-04-25T12:21:29Z</time>
      </trkpt>
      <trkpt lat="48.52468" lon="3.10319">
        <ele>127.1</ele>
        <time>2021-04-25T12:21:35Z</time>
      </trkpt>
      <trkpt lat="48.52472" lon="3.10317">
        <ele>128</ele>
        <time>2021-04-25T12:21:40Z</time>
      </trkpt>
      <trkpt lat="48.52477" lon="3.10316">
        <ele>128.7</ele>
        <time>2021-04-25T12:21:44Z</time>
      </trkpt>
      <trkpt lat="48.52483" lon="3.10314">
        <ele>129.4</ele>
        <time>2021-04-25T12:21:48Z</time>
      </trkpt>
      <trkpt lat="48.52488" lon="3.10312">
        <ele>129.9</ele>
        <time>2021-04-25T12:21:52Z</time>
      </trkpt>
      <trkpt lat="48.52492" lon="3.10308">
        <ele>130.4</ele>
        <time>2021-04-25T12:21:58Z</time>
      </trkpt>
      <trkpt lat="48.52498" lon="3.10306">
        <ele>130.6</ele>
        <time>2021-04-25T12:22:03Z</time>
      </trkpt>
      <trkpt lat="48.52503" lon="3.10302">
        <ele>131.2</ele>
        <time>2021-04-25T12:22:09Z</time>
      </trkpt>
      <trkpt lat="48.52507" lon="3.103">
        <ele>132.2</ele>
        <time>2021-04-25T12:22:18Z</time>
      </trkpt>
      <trkpt lat="48.52512" lon="3.10296">
        <ele>133.1</ele>
        <time>2021-04-25T12:22:28Z</time>
      </trkpt>
      <trkpt lat="48.52516" lon="3.10294">
        <ele>133.4</ele>
        <time>2021-04-25T12:22:34Z</time>
      </trkpt>
      <trkpt lat="48.52521" lon="3.10293">
        <ele>133.7</ele>
        <time>2021-04-25T12:22:40Z</time>
      </trkpt>
      <trkpt lat="48.52526" lon="3.10289">
        <ele>133.8</ele>
        <time>2021-04-25T12:22:45Z</time>
      </trkpt>
      <trkpt lat="48.5253" lon="3.10287">
        <ele>133.7</ele>
        <time>2021-04-25T12:22:49Z</time>
      </trkpt>
      <trkpt lat="48.52535" lon="3.10285">
        <ele>133.8</ele>
        <time>2021-04-25T12:22:53Z</time>
      </trkpt>
      <trkpt lat="48.5254" lon="3.10282">
        <ele>133.8</ele>
        <time>2021-04-25T12:22:57Z</time>
      </trkpt>
      <trkpt lat="48.52545" lon="3.10278">
        <ele>133.7</ele>
        <time>2021-04-25T12:23:02Z</time>
      </trkpt>
      <trkpt lat="48.52549" lon="3.10276">
        <ele>133.5</ele>
        <time>2021-04-25T12:23:07Z</time>
      </trkpt>
      <trkpt lat="48.52555" lon="3.10273">
        <ele>133.3</ele>
        <time>2021-04-25T12:23:12Z</time>
      </trkpt>
      <trkpt lat="48.52559" lon="3.1027">
        <ele>133.2</ele>
        <time>2021-04-25T12:23:16Z</time>
      </trkpt>
      <trkpt lat="48.52564" lon="3.10266">
        <ele>132.8</ele>
        <time>2021-04-25T12:23:21Z</time>
      </trkpt>
      <trkpt lat="48.52568" lon="3.10264">
        <ele>132.5</ele>
        <time>2021-04-25T12:23:25Z</time>
      </trkpt>
      <trkpt lat="48.52572" lon="3.10261">
        <ele>132.4</ele>
        <time>2021-04-25T12:23:29Z</time>
      </trkpt>
      <trkpt lat="48.52577" lon="3.10259">
        <ele>132</ele>
        <time>2021-04-25T12:23:33Z</time>
      </trkpt>
      <trkpt lat="48.52581" lon="3.10256">
        <ele>131.4</ele>
        <time>2021-04-25T12:23:38Z</time>
      </trkpt>
      <trkpt lat="48.52586" lon="3.10253">
        <ele>130.8</ele>
        <time>2021-04-25T12:23:43Z</time>
      </trkpt>
      <trkpt lat="48.52591" lon="3.10251">
        <ele>130.2</ele>
        <time>2021-04-25T12:23:48Z</time>
      </trkpt>
      <trkpt lat="48.52595" lon="3.10247">
        <ele>129.9</ele>
        <time>2021-04-25T12:23:53Z</time>
      </trkpt>
      <trkpt lat="48.52599" lon="3.10246">
        <ele>130.3</ele>
        <time>2021-04-25T12:23:58Z</time>
      </trkpt>
      <trkpt lat="48.52603" lon="3.10249">
        <ele>130.9</ele>
        <time>2021-04-25T12:24:03Z</time>
      </trkpt>
      <trkpt lat="48.52607" lon="3.10254">
        <ele>131.6</ele>
        <time>2021-04-25T12:24:07Z</time>
      </trkpt>
      <trkpt lat="48.5261" lon="3.1026">
        <ele>133.2</ele>
        <time>2021-04-25T12:24:13Z</time>
      </trkpt>
      <trkpt lat="48.52612" lon="3.10267">
        <ele>136.8</ele>
        <time>2021-04-25T12:24:24Z</time>
      </trkpt>
      <trkpt lat="48.52614" lon="3.10273">
        <ele>140</ele>
        <time>2021-04-25T12:24:35Z</time>
      </trkpt>
      <trkpt lat="48.52611" lon="3.1028">
        <ele>141.4</ele>
        <time>2021-04-25T12:25:19Z</time>
      </trkpt>
      <trkpt lat="48.52614" lon="3.10286">
        <ele>141.4</ele>
        <time>2021-04-25T12:25:25Z</time>
      </trkpt>
      <trkpt lat="48.52617" lon="3.10291">
        <ele>141.6</ele>
        <time>2021-04-25T12:25:33Z</time>
      </trkpt>
      <trkpt lat="48.52621" lon="3.10293">
        <ele>141.2</ele>
        <time>2021-04-25T12:25:41Z</time>
      </trkpt>
      <trkpt lat="48.52625" lon="3.10297">
        <ele>140.7</ele>
        <time>2021-04-25T12:25:44Z</time>
      </trkpt>
      <trkpt lat="48.52629" lon="3.10302">
        <ele>140.2</ele>
        <time>2021-04-25T12:25:48Z</time>
      </trkpt>
      <trkpt lat="48.52631" lon="3.10308">
        <ele>139.4</ele>
        <time>2021-04-25T12:25:54Z</time>
      </trkpt>
      <trkpt lat="48.5263" lon="3.10317">
        <ele>138.6</ele>
        <time>2021-04-25T12:26:03Z</time>
      </trkpt>
      <trkpt lat="48.52631" lon="3.10325">
        <ele>138.3</ele>
        <time>2021-04-25T12:26:07Z</time>
      </trkpt>
      <trkpt lat="48.52632" lon="3.10332">
        <ele>138.1</ele>
        <time>2021-04-25T12:26:12Z</time>
      </trkpt>
      <trkpt lat="48.52632" lon="3.10339">
        <ele>137.9</ele>
        <time>2021-04-25T12:26:18Z</time>
      </trkpt>
      <trkpt lat="48.52633" lon="3.10346">
        <ele>138</ele>
        <time>2021-04-25T12:26:22Z</time>
      </trkpt>
      <trkpt lat="48.52635" lon="3.10353">
        <ele>137.6</ele>
        <time>2021-04-25T12:26:29Z</time>
      </trkpt>
      <trkpt lat="48.5264" lon="3.10352">
        <ele>137.2</ele>
        <time>2021-04-25T12:26:36Z</time>
      </trkpt>
      <trkpt lat="48.52644" lon="3.10348">
        <ele>137</ele>
        <time>2021-04-25T12:26:41Z</time>
      </trkpt>
      <trkpt lat="48.52645" lon="3.10341">
        <ele>137</ele>
        <time>2021-04-25T12:26:47Z</time>
      </trkpt>
      <trkpt lat="48.52648" lon="3.10335">
        <ele>137.1</ele>
        <time>2021-04-25T12:26:53Z</time>
      </trkpt>
      <trkpt lat="48.52653" lon="3.10334">
        <ele>137.6</ele>
        <time>2021-04-25T12:26:59Z</time>
      </trkpt>
      <trkpt lat="48.52656" lon="3.10328">
        <ele>137.9</ele>
        <time>2021-04-25T12:27:11Z</time>
      </trkpt>
      <trkpt lat="48.52661" lon="3.1033">
        <ele>137.6</ele>
        <time>2021-04-25T12:27:45Z</time>
      </trkpt>
      <trkpt lat="48.52665" lon="3.10334">
        <ele>137.8</ele>
        <time>2021-04-25T12:27:53Z</time>
      </trkpt>
      <trkpt lat="48.52665" lon="3.10341">
        <ele>138.1</ele>
        <time>2021-04-25T12:28:03Z</time>
      </trkpt>
      <trkpt lat="48.52664" lon="3.10349">
        <ele>138.3</ele>
        <time>2021-04-25T12:28:15Z</time>
      </trkpt>
      <trkpt lat="48.52665" lon="3.10356">
        <ele>138</ele>
        <time>2021-04-25T12:28:37Z</time>
      </trkpt>
      <trkpt lat="48.5266" lon="3.1036">
        <ele>136.1</ele>
        <time>2021-04-25T12:28:57Z</time>
      </trkpt>
      <trkpt lat="48.52659" lon="3.10367">
        <ele>135</ele>
        <time>2021-04-25T12:29:09Z</time>
      </trkpt>
      <trkpt lat="48.52659" lon="3.10374">
        <ele>134.1</ele>
        <time>2021-04-25T12:29:32Z</time>
      </trkpt>
      <trkpt lat="48.52662" lon="3.1038">
        <ele>134.3</ele>
        <time>2021-04-25T12:29:37Z</time>
      </trkpt>
      <trkpt lat="48.52665" lon="3.10386">
        <ele>134.6</ele>
        <time>2021-04-25T12:29:41Z</time>
      </trkpt>
      <trkpt lat="48.52668" lon="3.10394">
        <ele>135</ele>
        <time>2021-04-25T12:29:46Z</time>
      </trkpt>
      <trkpt lat="48.52671" lon="3.10399">
        <ele>135.2</ele>
        <time>2021-04-25T12:29:50Z</time>
      </trkpt>
      <trkpt lat="48.52675" lon="3.10404">
        <ele>135.8</ele>
        <time>2021-04-25T12:29:57Z</time>
      </trkpt>
      <trkpt lat="48.52674" lon="3.10411">
        <ele>136.2</ele>
        <time>2021-04-25T12:30:03Z</time>
      </trkpt>
      <trkpt lat="48.52676" lon="3.10418">
        <ele>136.6</ele>
        <time>2021-04-25T12:30:08Z</time>
      </trkpt>
      <trkpt lat="48.52678" lon="3.10425">
        <ele>137.1</ele>
        <time>2021-04-25T12:30:13Z</time>
      </trkpt>
      <trkpt lat="48.52681" lon="3.1043">
        <ele>137.6</ele>
        <time>2021-04-25T12:30:18Z</time>
      </trkpt>
      <trkpt lat="48.52684" lon="3.10436">
        <ele>138.6</ele>
        <time>2021-04-25T12:30:31Z</time>
      </trkpt>
      <trkpt lat="48.52689" lon="3.10438">
        <ele>139.2</ele>
        <time>2021-04-25T12:30:39Z</time>
      </trkpt>
      <trkpt lat="48.52693" lon="3.10443">
        <ele>139.8</ele>
        <time>2021-04-25T12:30:45Z</time>
      </trkpt>
      <trkpt lat="48.52691" lon="3.1045">
        <ele>140.2</ele>
        <time>2021-04-25T12:30:53Z</time>
      </trkpt>
      <trkpt lat="48.52689" lon="3.10455">
        <ele>140.2</ele>
        <time>2021-04-25T12:30:59Z</time>
      </trkpt>
      <trkpt lat="48.52686" lon="3.10462">
        <ele>140.4</ele>
        <time>2021-04-25T12:31:05Z</time>
      </trkpt>
      <trkpt lat="48.52685" lon="3.10469">
        <ele>140.4</ele>
        <time>2021-04-25T12:31:10Z</time>
      </trkpt>
      <trkpt lat="48.52688" lon="3.10475">
        <ele>140.4</ele>
        <time>2021-04-25T12:31:14Z</time>
      </trkpt>
      <trkpt lat="48.52691" lon="3.10481">
        <ele>140.4</ele>
        <time>2021-04-25T12:31:20Z</time>
      </trkpt>
      <trkpt lat="48.52691" lon="3.10489">
        <ele>140.7</ele>
        <time>2021-04-25T12:31:32Z</time>
      </trkpt>
      <trkpt lat="48.5269" lon="3.10496">
        <ele>140.7</ele>
        <time>2021-04-25T12:31:44Z</time>
      </trkpt>
      <trkpt lat="48.52689" lon="3.10503">
        <ele>140.1</ele>
        <time>2021-04-25T12:31:50Z</time>
      </trkpt>
      <trkpt lat="48.52687" lon="3.10511">
        <ele>139.5</ele>
        <time>2021-04-25T12:31:55Z</time>
      </trkpt>
      <trkpt lat="48.52688" lon="3.10519">
        <ele>139.3</ele>
        <time>2021-04-25T12:31:59Z</time>
      </trkpt>
      <trkpt lat="48.5269" lon="3.10526">
        <ele>139.4</ele>
        <time>2021-04-25T12:32:05Z</time>
      </trkpt>
      <trkpt lat="48.52687" lon="3.10532">
        <ele>139.8</ele>
        <time>2021-04-25T12:32:15Z</time>
      </trkpt>
      <trkpt lat="48.52683" lon="3.10538">
        <ele>140.4</ele>
        <time>2021-04-25T12:32:40Z</time>
      </trkpt>
      <trkpt lat="48.5268" lon="3.10544">
        <ele>140.9</ele>
        <time>2021-04-25T12:32:44Z</time>
      </trkpt>
      <trkpt lat="48.52675" lon="3.10547">
        <ele>141.6</ele>
        <time>2021-04-25T12:33:00Z</time>
      </trkpt>
      <trkpt lat="48.5267" lon="3.10549">
        <ele>141.8</ele>
        <time>2021-04-25T12:33:06Z</time>
      </trkpt>
      <trkpt lat="48.52667" lon="3.10555">
        <ele>141.8</ele>
        <time>2021-04-25T12:33:11Z</time>
      </trkpt>
      <trkpt lat="48.52665" lon="3.10562">
        <ele>141.8</ele>
        <time>2021-04-25T12:33:16Z</time>
      </trkpt>
      <trkpt lat="48.52667" lon="3.10569">
        <ele>141.7</ele>
        <time>2021-04-25T12:33:21Z</time>
      </trkpt>
      <trkpt lat="48.52669" lon="3.10576">
        <ele>141.8</ele>
        <time>2021-04-25T12:33:30Z</time>
      </trkpt>
      <trkpt lat="48.52671" lon="3.10583">
        <ele>141.9</ele>
        <time>2021-04-25T12:33:36Z</time>
      </trkpt>
      <trkpt lat="48.5267" lon="3.1059">
        <ele>142</ele>
        <time>2021-04-25T12:33:40Z</time>
      </trkpt>
      <trkpt lat="48.52666" lon="3.10594">
        <ele>142.5</ele>
        <time>2021-04-25T12:33:56Z</time>
      </trkpt>
      <trkpt lat="48.52662" lon="3.10598">
        <ele>142.8</ele>
        <time>2021-04-25T12:34:04Z</time>
      </trkpt>
      <trkpt lat="48.52657" lon="3.10598">
        <ele>143</ele>
        <time>2021-04-25T12:34:09Z</time>
      </trkpt>
      <trkpt lat="48.52652" lon="3.10599">
        <ele>143.2</ele>
        <time>2021-04-25T12:34:15Z</time>
      </trkpt>
      <trkpt lat="48.52656" lon="3.10606">
        <ele>143.5</ele>
        <time>2021-04-25T12:34:48Z</time>
      </trkpt>
      <trkpt lat="48.5266" lon="3.1061">
        <ele>143.4</ele>
        <time>2021-04-25T12:34:51Z</time>
      </trkpt>
      <trkpt lat="48.52664" lon="3.10612">
        <ele>143.3</ele>
        <time>2021-04-25T12:34:57Z</time>
      </trkpt>
      <trkpt lat="48.52667" lon="3.10617">
        <ele>143.4</ele>
        <time>2021-04-25T12:35:05Z</time>
      </trkpt>
      <trkpt lat="48.52669" lon="3.10624">
        <ele>143.6</ele>
        <time>2021-04-25T12:35:12Z</time>
      </trkpt>
      <trkpt lat="48.52672" lon="3.1063">
        <ele>143.8</ele>
        <time>2021-04-25T12:35:18Z</time>
      </trkpt>
      <trkpt lat="48.52673" lon="3.10638">
        <ele>144</ele>
        <time>2021-04-25T12:35:24Z</time>
      </trkpt>
      <trkpt lat="48.52674" lon="3.10645">
        <ele>144.2</ele>
        <time>2021-04-25T12:35:29Z</time>
      </trkpt>
      <trkpt lat="48.52676" lon="3.10652">
        <ele>144.3</ele>
        <time>2021-04-25T12:35:34Z</time>
      </trkpt>
      <trkpt lat="48.52678" lon="3.10659">
        <ele>144.3</ele>
        <time>2021-04-25T12:35:39Z</time>
      </trkpt>
      <trkpt lat="48.52675" lon="3.10664">
        <ele>144</ele>
        <time>2021-04-25T12:35:49Z</time>
      </trkpt>
      <trkpt lat="48.52671" lon="3.1067">
        <ele>143.5</ele>
        <time>2021-04-25T12:35:59Z</time>
      </trkpt>
      <trkpt lat="48.52666" lon="3.10671">
        <ele>143.1</ele>
        <time>2021-04-25T12:36:07Z</time>
      </trkpt>
      <trkpt lat="48.52662" lon="3.10675">
        <ele>142.5</ele>
        <time>2021-04-25T12:36:18Z</time>
      </trkpt>
      <trkpt lat="48.52665" lon="3.10681">
        <ele>142.4</ele>
        <time>2021-04-25T12:36:24Z</time>
      </trkpt>
      <trkpt lat="48.52669" lon="3.1068">
        <ele>142.3</ele>
        <time>2021-04-25T12:36:39Z</time>
      </trkpt>
      <trkpt lat="48.52674" lon="3.10685">
        <ele>142.2</ele>
        <time>2021-04-25T12:36:49Z</time>
      </trkpt>
      <trkpt lat="48.52678" lon="3.1069">
        <ele>142.2</ele>
        <time>2021-04-25T12:36:53Z</time>
      </trkpt>
      <trkpt lat="48.52679" lon="3.10698">
        <ele>142.3</ele>
        <time>2021-04-25T12:36:59Z</time>
      </trkpt>
      <trkpt lat="48.52679" lon="3.10705">
        <ele>142.6</ele>
        <time>2021-04-25T12:37:05Z</time>
      </trkpt>
      <trkpt lat="48.52683" lon="3.10711">
        <ele>143.3</ele>
        <time>2021-04-25T12:37:13Z</time>
      </trkpt>
      <trkpt lat="48.52679" lon="3.10707">
        <ele>143.8</ele>
        <time>2021-04-25T12:37:24Z</time>
      </trkpt>
      <trkpt lat="48.52678" lon="3.107">
        <ele>144.7</ele>
        <time>2021-04-25T12:37:38Z</time>
      </trkpt>
      <trkpt lat="48.52679" lon="3.10692">
        <ele>144.6</ele>
        <time>2021-04-25T12:37:41Z</time>
      </trkpt>
      <trkpt lat="48.52674" lon="3.1069">
        <ele>143.5</ele>
        <time>2021-04-25T12:37:55Z</time>
      </trkpt>
      <trkpt lat="48.5267" lon="3.10686">
        <ele>143.1</ele>
        <time>2021-04-25T12:38:02Z</time>
      </trkpt>
      <trkpt lat="48.52667" lon="3.10682">
        <ele>142.7</ele>
        <time>2021-04-25T12:38:14Z</time>
      </trkpt>
      <trkpt lat="48.52665" lon="3.10675">
        <ele>142.7</ele>
        <time>2021-04-25T12:38:24Z</time>
      </trkpt>
      <trkpt lat="48.52664" lon="3.10682">
        <ele>142.3</ele>
        <time>2021-04-25T12:38:42Z</time>
      </trkpt>
      <trkpt lat="48.52663" lon="3.10689">
        <ele>141.8</ele>
        <time>2021-04-25T12:38:49Z</time>
      </trkpt>
      <trkpt lat="48.52669" lon="3.10689">
        <ele>142.6</ele>
        <time>2021-04-25T12:39:07Z</time>
      </trkpt>
      <trkpt lat="48.52674" lon="3.10692">
        <ele>142.9</ele>
        <time>2021-04-25T12:39:11Z</time>
      </trkpt>
      <trkpt lat="48.52679" lon="3.10695">
        <ele>143.2</ele>
        <time>2021-04-25T12:39:15Z</time>
      </trkpt>
      <trkpt lat="48.52683" lon="3.10697">
        <ele>143.5</ele>
        <time>2021-04-25T12:39:19Z</time>
      </trkpt>
      <trkpt lat="48.52688" lon="3.10702">
        <ele>143.6</ele>
        <time>2021-04-25T12:39:23Z</time>
      </trkpt>
      <trkpt lat="48.52691" lon="3.10706">
        <ele>143.5</ele>
        <time>2021-04-25T12:39:28Z</time>
      </trkpt>
      <trkpt lat="48.52692" lon="3.10713">
        <ele>143.5</ele>
        <time>2021-04-25T12:39:36Z</time>
      </trkpt>
      <trkpt lat="48.52691" lon="3.10721">
        <ele>143.5</ele>
        <time>2021-04-25T12:39:42Z</time>
      </trkpt>
      <trkpt lat="48.52692" lon="3.10729">
        <ele>143.7</ele>
        <time>2021-04-25T12:39:46Z</time>
      </trkpt>
      <trkpt lat="48.52691" lon="3.10736">
        <ele>143.9</ele>
        <time>2021-04-25T12:39:51Z</time>
      </trkpt>
      <trkpt lat="48.5269" lon="3.10743">
        <ele>143.8</ele>
        <time>2021-04-25T12:39:57Z</time>
      </trkpt>
      <trkpt lat="48.52691" lon="3.1075">
        <ele>143.5</ele>
        <time>2021-04-25T12:40:02Z</time>
      </trkpt>
      <trkpt lat="48.52692" lon="3.10756">
        <ele>143.1</ele>
        <time>2021-04-25T12:40:08Z</time>
      </trkpt>
      <trkpt lat="48.52693" lon="3.10764">
        <ele>143.1</ele>
        <time>2021-04-25T12:40:14Z</time>
      </trkpt>
      <trkpt lat="48.52694" lon="3.10771">
        <ele>143</ele>
        <time>2021-04-25T12:40:19Z</time>
      </trkpt>
      <trkpt lat="48.52696" lon="3.10777">
        <ele>143</ele>
        <time>2021-04-25T12:40:24Z</time>
      </trkpt>
      <trkpt lat="48.52696" lon="3.10785">
        <ele>142.8</ele>
        <time>2021-04-25T12:40:30Z</time>
      </trkpt>
      <trkpt lat="48.52695" lon="3.10792">
        <ele>142.9</ele>
        <time>2021-04-25T12:40:33Z</time>
      </trkpt>
      <trkpt lat="48.52696" lon="3.108">
        <ele>142.4</ele>
        <time>2021-04-25T12:40:37Z</time>
      </trkpt>
      <trkpt lat="48.52693" lon="3.10807">
        <ele>142</ele>
        <time>2021-04-25T12:40:43Z</time>
      </trkpt>
      <trkpt lat="48.52689" lon="3.10806">
        <ele>143.8</ele>
        <time>2021-04-25T12:41:09Z</time>
      </trkpt>
      <trkpt lat="48.52684" lon="3.10803">
        <ele>144.4</ele>
        <time>2021-04-25T12:41:13Z</time>
      </trkpt>
      <trkpt lat="48.52679" lon="3.10803">
        <ele>145.3</ele>
        <time>2021-04-25T12:41:18Z</time>
      </trkpt>
      <trkpt lat="48.52674" lon="3.10802">
        <ele>145.8</ele>
        <time>2021-04-25T12:41:23Z</time>
      </trkpt>
      <trkpt lat="48.52669" lon="3.10803">
        <ele>145.8</ele>
        <time>2021-04-25T12:41:27Z</time>
      </trkpt>
      <trkpt lat="48.52665" lon="3.10806">
        <ele>145.8</ele>
        <time>2021-04-25T12:41:30Z</time>
      </trkpt>
      <trkpt lat="48.5266" lon="3.10807">
        <ele>145.5</ele>
        <time>2021-04-25T12:41:34Z</time>
      </trkpt>
      <trkpt lat="48.52655" lon="3.10808">
        <ele>144.9</ele>
        <time>2021-04-25T12:41:40Z</time>
      </trkpt>
      <trkpt lat="48.5265" lon="3.1081">
        <ele>144.6</ele>
        <time>2021-04-25T12:41:43Z</time>
      </trkpt>
      <trkpt lat="48.52646" lon="3.10814">
        <ele>144</ele>
        <time>2021-04-25T12:41:46Z</time>
      </trkpt>
      <trkpt lat="48.52642" lon="3.10817">
        <ele>143.2</ele>
        <time>2021-04-25T12:41:50Z</time>
      </trkpt>
      <trkpt lat="48.52637" lon="3.10817">
        <ele>142.5</ele>
        <time>2021-04-25T12:41:54Z</time>
      </trkpt>
      <trkpt lat="48.52632" lon="3.10817">
        <ele>142</ele>
        <time>2021-04-25T12:41:59Z</time>
      </trkpt>
      <trkpt lat="48.52627" lon="3.10819">
        <ele>141.6</ele>
        <time>2021-04-25T12:42:05Z</time>
      </trkpt>
      <trkpt lat="48.52622" lon="3.10821">
        <ele>141.4</ele>
        <time>2021-04-25T12:42:11Z</time>
      </trkpt>
      <trkpt lat="48.52618" lon="3.10824">
        <ele>140.9</ele>
        <time>2021-04-25T12:42:17Z</time>
      </trkpt>
      <trkpt lat="48.52613" lon="3.10824">
        <ele>139.7</ele>
        <time>2021-04-25T12:42:27Z</time>
      </trkpt>
      <trkpt lat="48.52608" lon="3.10825">
        <ele>139.1</ele>
        <time>2021-04-25T12:42:31Z</time>
      </trkpt>
      <trkpt lat="48.52604" lon="3.10824">
        <ele>138.1</ele>
        <time>2021-04-25T12:42:36Z</time>
      </trkpt>
      <trkpt lat="48.52599" lon="3.10823">
        <ele>134.4</ele>
        <time>2021-04-25T12:42:57Z</time>
      </trkpt>
      <trkpt lat="48.52594" lon="3.10825">
        <ele>134.1</ele>
        <time>2021-04-25T12:43:01Z</time>
      </trkpt>
      <trkpt lat="48.5259" lon="3.10829">
        <ele>134</ele>
        <time>2021-04-25T12:43:05Z</time>
      </trkpt>
      <trkpt lat="48.52585" lon="3.10829">
        <ele>134.2</ele>
        <time>2021-04-25T12:43:12Z</time>
      </trkpt>
      <trkpt lat="48.52579" lon="3.10831">
        <ele>134.3</ele>
        <time>2021-04-25T12:43:17Z</time>
      </trkpt>
      <trkpt lat="48.52575" lon="3.10833">
        <ele>134.3</ele>
        <time>2021-04-25T12:43:21Z</time>
      </trkpt>
      <trkpt lat="48.5257" lon="3.10834">
        <ele>134.3</ele>
        <time>2021-04-25T12:43:25Z</time>
      </trkpt>
      <trkpt lat="48.52565" lon="3.10835">
        <ele>134.3</ele>
        <time>2021-04-25T12:43:29Z</time>
      </trkpt>
      <trkpt lat="48.52559" lon="3.10835">
        <ele>134.2</ele>
        <time>2021-04-25T12:43:33Z</time>
      </trkpt>
      <trkpt lat="48.52554" lon="3.10836">
        <ele>134.3</ele>
        <time>2021-04-25T12:43:37Z</time>
      </trkpt>
      <trkpt lat="48.5255" lon="3.10837">
        <ele>134.4</ele>
        <time>2021-04-25T12:43:41Z</time>
      </trkpt>
      <trkpt lat="48.52545" lon="3.10837">
        <ele>134.6</ele>
        <time>2021-04-25T12:43:46Z</time>
      </trkpt>
      <trkpt lat="48.5254" lon="3.10838">
        <ele>134.6</ele>
        <time>2021-04-25T12:43:50Z</time>
      </trkpt>
      <trkpt lat="48.52535" lon="3.10839">
        <ele>134.6</ele>
        <time>2021-04-25T12:43:55Z</time>
      </trkpt>
      <trkpt lat="48.5253" lon="3.10842">
        <ele>134.8</ele>
        <time>2021-04-25T12:44:00Z</time>
      </trkpt>
      <trkpt lat="48.52525" lon="3.10844">
        <ele>135.2</ele>
        <time>2021-04-25T12:44:05Z</time>
      </trkpt>
      <trkpt lat="48.5252" lon="3.10845">
        <ele>135.3</ele>
        <time>2021-04-25T12:44:09Z</time>
      </trkpt>
      <trkpt lat="48.52514" lon="3.10846">
        <ele>135.3</ele>
        <time>2021-04-25T12:44:14Z</time>
      </trkpt>
      <trkpt lat="48.52509" lon="3.10847">
        <ele>135.4</ele>
        <time>2021-04-25T12:44:18Z</time>
      </trkpt>
      <trkpt lat="48.52504" lon="3.10849">
        <ele>135.5</ele>
        <time>2021-04-25T12:44:23Z</time>
      </trkpt>
      <trkpt lat="48.52499" lon="3.10852">
        <ele>135.7</ele>
        <time>2021-04-25T12:44:28Z</time>
      </trkpt>
      <trkpt lat="48.52495" lon="3.10854">
        <ele>136.1</ele>
        <time>2021-04-25T12:44:32Z</time>
      </trkpt>
      <trkpt lat="48.5249" lon="3.10856">
        <ele>136.7</ele>
        <time>2021-04-25T12:44:37Z</time>
      </trkpt>
      <trkpt lat="48.52484" lon="3.10856">
        <ele>137.1</ele>
        <time>2021-04-25T12:44:42Z</time>
      </trkpt>
      <trkpt lat="48.5248" lon="3.10856">
        <ele>137.4</ele>
        <time>2021-04-25T12:44:46Z</time>
      </trkpt>
      <trkpt lat="48.52475" lon="3.10857">
        <ele>137.8</ele>
        <time>2021-04-25T12:44:50Z</time>
      </trkpt>
      <trkpt lat="48.5247" lon="3.10858">
        <ele>138.3</ele>
        <time>2021-04-25T12:44:55Z</time>
      </trkpt>
      <trkpt lat="48.52465" lon="3.10859">
        <ele>138.8</ele>
        <time>2021-04-25T12:45:00Z</time>
      </trkpt>
      <trkpt lat="48.5246" lon="3.10861">
        <ele>139</ele>
        <time>2021-04-25T12:45:05Z</time>
      </trkpt>
      <trkpt lat="48.52455" lon="3.10863">
        <ele>139.3</ele>
        <time>2021-04-25T12:45:10Z</time>
      </trkpt>
      <trkpt lat="48.5245" lon="3.10865">
        <ele>139.5</ele>
        <time>2021-04-25T12:45:15Z</time>
      </trkpt>
      <trkpt lat="48.52444" lon="3.10867">
        <ele>139.5</ele>
        <time>2021-04-25T12:45:20Z</time>
      </trkpt>
      <trkpt lat="48.52439" lon="3.10868">
        <ele>139.6</ele>
        <time>2021-04-25T12:45:24Z</time>
      </trkpt>
      <trkpt lat="48.52435" lon="3.10867">
        <ele>139.8</ele>
        <time>2021-04-25T12:45:28Z</time>
      </trkpt>
      <trkpt lat="48.5243" lon="3.10867">
        <ele>140</ele>
        <time>2021-04-25T12:45:32Z</time>
      </trkpt>
      <trkpt lat="48.52425" lon="3.10869">
        <ele>140.3</ele>
        <time>2021-04-25T12:45:36Z</time>
      </trkpt>
      <trkpt lat="48.52421" lon="3.1087">
        <ele>140.6</ele>
        <time>2021-04-25T12:45:40Z</time>
      </trkpt>
      <trkpt lat="48.52416" lon="3.10871">
        <ele>140.8</ele>
        <time>2021-04-25T12:45:44Z</time>
      </trkpt>
      <trkpt lat="48.52411" lon="3.10872">
        <ele>141.1</ele>
        <time>2021-04-25T12:45:49Z</time>
      </trkpt>
      <trkpt lat="48.52405" lon="3.10874">
        <ele>141.4</ele>
        <time>2021-04-25T12:45:53Z</time>
      </trkpt>
      <trkpt lat="48.52401" lon="3.10876">
        <ele>141.5</ele>
        <time>2021-04-25T12:45:57Z</time>
      </trkpt>
      <trkpt lat="48.52396" lon="3.10878">
        <ele>141.7</ele>
        <time>2021-04-25T12:46:01Z</time>
      </trkpt>
      <trkpt lat="48.5239" lon="3.10879">
        <ele>141.7</ele>
        <time>2021-04-25T12:46:06Z</time>
      </trkpt>
      <trkpt lat="48.52385" lon="3.10879">
        <ele>141.7</ele>
        <time>2021-04-25T12:46:10Z</time>
      </trkpt>
      <trkpt lat="48.5238" lon="3.10879">
        <ele>141.5</ele>
        <time>2021-04-25T12:46:14Z</time>
      </trkpt>
      <trkpt lat="48.52374" lon="3.1088">
        <ele>140.9</ele>
        <time>2021-04-25T12:46:18Z</time>
      </trkpt>
      <trkpt lat="48.52369" lon="3.10881">
        <ele>140.3</ele>
        <time>2021-04-25T12:46:22Z</time>
      </trkpt>
      <trkpt lat="48.52364" lon="3.10883">
        <ele>139.6</ele>
        <time>2021-04-25T12:46:27Z</time>
      </trkpt>
      <trkpt lat="48.52359" lon="3.10883">
        <ele>139.2</ele>
        <time>2021-04-25T12:46:31Z</time>
      </trkpt>
      <trkpt lat="48.52354" lon="3.10884">
        <ele>138.8</ele>
        <time>2021-04-25T12:46:35Z</time>
      </trkpt>
      <trkpt lat="48.52349" lon="3.10885">
        <ele>138.5</ele>
        <time>2021-04-25T12:46:39Z</time>
      </trkpt>
      <trkpt lat="48.52344" lon="3.10886">
        <ele>138.2</ele>
        <time>2021-04-25T12:46:43Z</time>
      </trkpt>
      <trkpt lat="48.52339" lon="3.10888">
        <ele>137.8</ele>
        <time>2021-04-25T12:46:47Z</time>
      </trkpt>
      <trkpt lat="48.52334" lon="3.10891">
        <ele>137.2</ele>
        <time>2021-04-25T12:46:51Z</time>
      </trkpt>
      <trkpt lat="48.52329" lon="3.10891">
        <ele>136.7</ele>
        <time>2021-04-25T12:46:55Z</time>
      </trkpt>
      <trkpt lat="48.52324" lon="3.1089">
        <ele>136.5</ele>
        <time>2021-04-25T12:46:59Z</time>
      </trkpt>
      <trkpt lat="48.52319" lon="3.10891">
        <ele>136.2</ele>
        <time>2021-04-25T12:47:03Z</time>
      </trkpt>
      <trkpt lat="48.52314" lon="3.10892">
        <ele>136</ele>
        <time>2021-04-25T12:47:07Z</time>
      </trkpt>
      <trkpt lat="48.52309" lon="3.10894">
        <ele>136.2</ele>
        <time>2021-04-25T12:47:12Z</time>
      </trkpt>
      <trkpt lat="48.52305" lon="3.10896">
        <ele>136.4</ele>
        <time>2021-04-25T12:47:17Z</time>
      </trkpt>
      <trkpt lat="48.523" lon="3.10897">
        <ele>136.5</ele>
        <time>2021-04-25T12:47:21Z</time>
      </trkpt>
      <trkpt lat="48.52295" lon="3.10898">
        <ele>136.8</ele>
        <time>2021-04-25T12:47:25Z</time>
      </trkpt>
      <trkpt lat="48.5229" lon="3.10899">
        <ele>136.8</ele>
        <time>2021-04-25T12:47:29Z</time>
      </trkpt>
      <trkpt lat="48.52285" lon="3.109">
        <ele>136.7</ele>
        <time>2021-04-25T12:47:33Z</time>
      </trkpt>
      <trkpt lat="48.52281" lon="3.10899">
        <ele>136.8</ele>
        <time>2021-04-25T12:47:37Z</time>
      </trkpt>
      <trkpt lat="48.52276" lon="3.10897">
        <ele>136.8</ele>
        <time>2021-04-25T12:47:41Z</time>
      </trkpt>
      <trkpt lat="48.52271" lon="3.10896">
        <ele>136.9</ele>
        <time>2021-04-25T12:47:47Z</time>
      </trkpt>
      <trkpt lat="48.52266" lon="3.10894">
        <ele>137.2</ele>
        <time>2021-04-25T12:47:52Z</time>
      </trkpt>
      <trkpt lat="48.52261" lon="3.10891">
        <ele>137.1</ele>
        <time>2021-04-25T12:47:55Z</time>
      </trkpt>
      <trkpt lat="48.52256" lon="3.1089">
        <ele>137.1</ele>
        <time>2021-04-25T12:47:59Z</time>
      </trkpt>
      <trkpt lat="48.52251" lon="3.10889">
        <ele>137.1</ele>
        <time>2021-04-25T12:48:03Z</time>
      </trkpt>
      <trkpt lat="48.52246" lon="3.10886">
        <ele>137.2</ele>
        <time>2021-04-25T12:48:08Z</time>
      </trkpt>
      <trkpt lat="48.52242" lon="3.10884">
        <ele>137.5</ele>
        <time>2021-04-25T12:48:12Z</time>
      </trkpt>
      <trkpt lat="48.52238" lon="3.1088">
        <ele>138.1</ele>
        <time>2021-04-25T12:48:17Z</time>
      </trkpt>
      <trkpt lat="48.52233" lon="3.1088">
        <ele>138.3</ele>
        <time>2021-04-25T12:48:21Z</time>
      </trkpt>
      <trkpt lat="48.52228" lon="3.1088">
        <ele>138.3</ele>
        <time>2021-04-25T12:48:25Z</time>
      </trkpt>
      <trkpt lat="48.52222" lon="3.10878">
        <ele>138.3</ele>
        <time>2021-04-25T12:48:29Z</time>
      </trkpt>
      <trkpt lat="48.52218" lon="3.10878">
        <ele>138.3</ele>
        <time>2021-04-25T12:48:32Z</time>
      </trkpt>
      <trkpt lat="48.52213" lon="3.10877">
        <ele>138.3</ele>
        <time>2021-04-25T12:48:36Z</time>
      </trkpt>
      <trkpt lat="48.52208" lon="3.10878">
        <ele>138.3</ele>
        <time>2021-04-25T12:48:40Z</time>
      </trkpt>
      <trkpt lat="48.52203" lon="3.10877">
        <ele>138.4</ele>
        <time>2021-04-25T12:48:44Z</time>
      </trkpt>
      <trkpt lat="48.52198" lon="3.10877">
        <ele>138.3</ele>
        <time>2021-04-25T12:48:48Z</time>
      </trkpt>
      <trkpt lat="48.52193" lon="3.10876">
        <ele>138.2</ele>
        <time>2021-04-25T12:48:52Z</time>
      </trkpt>
      <trkpt lat="48.52188" lon="3.10873">
        <ele>137.8</ele>
        <time>2021-04-25T12:48:58Z</time>
      </trkpt>
      <trkpt lat="48.52183" lon="3.1087">
        <ele>137.4</ele>
        <time>2021-04-25T12:49:04Z</time>
      </trkpt>
      <trkpt lat="48.52179" lon="3.10868">
        <ele>137.2</ele>
        <time>2021-04-25T12:49:08Z</time>
      </trkpt>
      <trkpt lat="48.52174" lon="3.10867">
        <ele>137</ele>
        <time>2021-04-25T12:49:12Z</time>
      </trkpt>
      <trkpt lat="48.52169" lon="3.10868">
        <ele>137</ele>
        <time>2021-04-25T12:49:16Z</time>
      </trkpt>
      <trkpt lat="48.52164" lon="3.10868">
        <ele>137.1</ele>
        <time>2021-04-25T12:49:19Z</time>
      </trkpt>
      <trkpt lat="48.52159" lon="3.10867">
        <ele>137.1</ele>
        <time>2021-04-25T12:49:23Z</time>
      </trkpt>
      <trkpt lat="48.52154" lon="3.10868">
        <ele>137</ele>
        <time>2021-04-25T12:49:28Z</time>
      </trkpt>
      <trkpt lat="48.52149" lon="3.10868">
        <ele>136.9</ele>
        <time>2021-04-25T12:49:32Z</time>
      </trkpt>
      <trkpt lat="48.52144" lon="3.10869">
        <ele>136.7</ele>
        <time>2021-04-25T12:49:36Z</time>
      </trkpt>
      <trkpt lat="48.52139" lon="3.10872">
        <ele>136.4</ele>
        <time>2021-04-25T12:49:41Z</time>
      </trkpt>
      <trkpt lat="48.52134" lon="3.10874">
        <ele>135.6</ele>
        <time>2021-04-25T12:49:47Z</time>
      </trkpt>
      <trkpt lat="48.52128" lon="3.10876">
        <ele>135.1</ele>
        <time>2021-04-25T12:49:51Z</time>
      </trkpt>
      <trkpt lat="48.52124" lon="3.10876">
        <ele>134.5</ele>
        <time>2021-04-25T12:49:55Z</time>
      </trkpt>
      <trkpt lat="48.52119" lon="3.10874">
        <ele>133.7</ele>
        <time>2021-04-25T12:50:00Z</time>
      </trkpt>
      <trkpt lat="48.52113" lon="3.10873">
        <ele>133</ele>
        <time>2021-04-25T12:50:04Z</time>
      </trkpt>
      <trkpt lat="48.52109" lon="3.10874">
        <ele>132.6</ele>
        <time>2021-04-25T12:50:07Z</time>
      </trkpt>
      <trkpt lat="48.52104" lon="3.10876">
        <ele>132.3</ele>
        <time>2021-04-25T12:50:10Z</time>
      </trkpt>
      <trkpt lat="48.52099" lon="3.10879">
        <ele>132.1</ele>
        <time>2021-04-25T12:50:13Z</time>
      </trkpt>
      <trkpt lat="48.52094" lon="3.10883">
        <ele>131.8</ele>
        <time>2021-04-25T12:50:17Z</time>
      </trkpt>
      <trkpt lat="48.52089" lon="3.10886">
        <ele>131.5</ele>
        <time>2021-04-25T12:50:21Z</time>
      </trkpt>
      <trkpt lat="48.52085" lon="3.10889">
        <ele>131.2</ele>
        <time>2021-04-25T12:50:26Z</time>
      </trkpt>
      <trkpt lat="48.52081" lon="3.10892">
        <ele>130.7</ele>
        <time>2021-04-25T12:50:30Z</time>
      </trkpt>
      <trkpt lat="48.52076" lon="3.10896">
        <ele>130.1</ele>
        <time>2021-04-25T12:50:34Z</time>
      </trkpt>
      <trkpt lat="48.52072" lon="3.109">
        <ele>129.6</ele>
        <time>2021-04-25T12:50:38Z</time>
      </trkpt>
      <trkpt lat="48.52067" lon="3.10905">
        <ele>129.4</ele>
        <time>2021-04-25T12:50:42Z</time>
      </trkpt>
      <trkpt lat="48.52062" lon="3.10909">
        <ele>128.9</ele>
        <time>2021-04-25T12:50:46Z</time>
      </trkpt>
      <trkpt lat="48.52057" lon="3.10913">
        <ele>128.6</ele>
        <time>2021-04-25T12:50:50Z</time>
      </trkpt>
      <trkpt lat="48.52053" lon="3.10918">
        <ele>128.5</ele>
        <time>2021-04-25T12:50:54Z</time>
      </trkpt>
      <trkpt lat="48.52049" lon="3.10923">
        <ele>128.8</ele>
        <time>2021-04-25T12:50:59Z</time>
      </trkpt>
      <trkpt lat="48.52044" lon="3.10926">
        <ele>129.2</ele>
        <time>2021-04-25T12:51:03Z</time>
      </trkpt>
      <trkpt lat="48.52039" lon="3.1093">
        <ele>129.3</ele>
        <time>2021-04-25T12:51:07Z</time>
      </trkpt>
      <trkpt lat="48.52035" lon="3.10935">
        <ele>129.5</ele>
        <time>2021-04-25T12:51:11Z</time>
      </trkpt>
      <trkpt lat="48.52031" lon="3.10939">
        <ele>129.8</ele>
        <time>2021-04-25T12:51:15Z</time>
      </trkpt>
      <trkpt lat="48.52027" lon="3.10944">
        <ele>130</ele>
        <time>2021-04-25T12:51:20Z</time>
      </trkpt>
      <trkpt lat="48.52022" lon="3.10947">
        <ele>130.2</ele>
        <time>2021-04-25T12:51:25Z</time>
      </trkpt>
      <trkpt lat="48.52019" lon="3.10952">
        <ele>130.6</ele>
        <time>2021-04-25T12:51:29Z</time>
      </trkpt>
      <trkpt lat="48.52014" lon="3.10955">
        <ele>130.9</ele>
        <time>2021-04-25T12:51:33Z</time>
      </trkpt>
      <trkpt lat="48.52009" lon="3.1096">
        <ele>131.5</ele>
        <time>2021-04-25T12:51:37Z</time>
      </trkpt>
      <trkpt lat="48.52006" lon="3.10965">
        <ele>132.1</ele>
        <time>2021-04-25T12:51:41Z</time>
      </trkpt>
      <trkpt lat="48.52002" lon="3.10969">
        <ele>132.5</ele>
        <time>2021-04-25T12:51:45Z</time>
      </trkpt>
      <trkpt lat="48.51998" lon="3.10973">
        <ele>132.8</ele>
        <time>2021-04-25T12:51:49Z</time>
      </trkpt>
      <trkpt lat="48.51994" lon="3.10978">
        <ele>133.1</ele>
        <time>2021-04-25T12:51:53Z</time>
      </trkpt>
      <trkpt lat="48.5199" lon="3.10982">
        <ele>133.3</ele>
        <time>2021-04-25T12:51:57Z</time>
      </trkpt>
      <trkpt lat="48.51986" lon="3.10986">
        <ele>133.8</ele>
        <time>2021-04-25T12:52:01Z</time>
      </trkpt>
      <trkpt lat="48.51982" lon="3.1099">
        <ele>134.1</ele>
        <time>2021-04-25T12:52:05Z</time>
      </trkpt>
      <trkpt lat="48.51978" lon="3.10994">
        <ele>134.4</ele>
        <time>2021-04-25T12:52:09Z</time>
      </trkpt>
      <trkpt lat="48.51974" lon="3.10999">
        <ele>134.8</ele>
        <time>2021-04-25T12:52:13Z</time>
      </trkpt>
      <trkpt lat="48.5197" lon="3.11003">
        <ele>135.4</ele>
        <time>2021-04-25T12:52:17Z</time>
      </trkpt>
      <trkpt lat="48.51966" lon="3.11007">
        <ele>136.1</ele>
        <time>2021-04-25T12:52:21Z</time>
      </trkpt>
      <trkpt lat="48.51962" lon="3.1101">
        <ele>136.9</ele>
        <time>2021-04-25T12:52:25Z</time>
      </trkpt>
      <trkpt lat="48.51957" lon="3.11011">
        <ele>137.7</ele>
        <time>2021-04-25T12:52:29Z</time>
      </trkpt>
      <trkpt lat="48.51952" lon="3.1101">
        <ele>138.7</ele>
        <time>2021-04-25T12:52:33Z</time>
      </trkpt>
      <trkpt lat="48.51946" lon="3.11009">
        <ele>139.3</ele>
        <time>2021-04-25T12:52:38Z</time>
      </trkpt>
      <trkpt lat="48.51942" lon="3.11004">
        <ele>139.5</ele>
        <time>2021-04-25T12:52:43Z</time>
      </trkpt>
      <trkpt lat="48.51938" lon="3.10999">
        <ele>139.6</ele>
        <time>2021-04-25T12:52:47Z</time>
      </trkpt>
      <trkpt lat="48.51935" lon="3.10992">
        <ele>139.5</ele>
        <time>2021-04-25T12:52:51Z</time>
      </trkpt>
      <trkpt lat="48.51931" lon="3.10987">
        <ele>139.1</ele>
        <time>2021-04-25T12:52:56Z</time>
      </trkpt>
      <trkpt lat="48.51927" lon="3.10983">
        <ele>138.2</ele>
        <time>2021-04-25T12:53:00Z</time>
      </trkpt>
      <trkpt lat="48.51923" lon="3.10977">
        <ele>137.3</ele>
        <time>2021-04-25T12:53:04Z</time>
      </trkpt>
      <trkpt lat="48.5192" lon="3.10973">
        <ele>136.2</ele>
        <time>2021-04-25T12:53:08Z</time>
      </trkpt>
      <trkpt lat="48.51915" lon="3.10967">
        <ele>135.1</ele>
        <time>2021-04-25T12:53:12Z</time>
      </trkpt>
      <trkpt lat="48.51911" lon="3.10961">
        <ele>134.1</ele>
        <time>2021-04-25T12:53:16Z</time>
      </trkpt>
      <trkpt lat="48.51907" lon="3.10955">
        <ele>133.2</ele>
        <time>2021-04-25T12:53:20Z</time>
      </trkpt>
      <trkpt lat="48.51904" lon="3.1095">
        <ele>132.6</ele>
        <time>2021-04-25T12:53:24Z</time>
      </trkpt>
      <trkpt lat="48.51901" lon="3.10945">
        <ele>132</ele>
        <time>2021-04-25T12:53:28Z</time>
      </trkpt>
      <trkpt lat="48.51896" lon="3.10941">
        <ele>131.3</ele>
        <time>2021-04-25T12:53:32Z</time>
      </trkpt>
      <trkpt lat="48.51892" lon="3.10937">
        <ele>130.4</ele>
        <time>2021-04-25T12:53:36Z</time>
      </trkpt>
      <trkpt lat="48.51888" lon="3.10931">
        <ele>129.5</ele>
        <time>2021-04-25T12:53:40Z</time>
      </trkpt>
      <trkpt lat="48.51885" lon="3.10927">
        <ele>128.7</ele>
        <time>2021-04-25T12:53:44Z</time>
      </trkpt>
      <trkpt lat="48.5188" lon="3.10924">
        <ele>127.8</ele>
        <time>2021-04-25T12:53:48Z</time>
      </trkpt>
      <trkpt lat="48.51876" lon="3.1092">
        <ele>127.4</ele>
        <time>2021-04-25T12:53:52Z</time>
      </trkpt>
      <trkpt lat="48.51872" lon="3.10915">
        <ele>127.4</ele>
        <time>2021-04-25T12:53:55Z</time>
      </trkpt>
      <trkpt lat="48.51868" lon="3.1091">
        <ele>127.8</ele>
        <time>2021-04-25T12:53:59Z</time>
      </trkpt>
      <trkpt lat="48.51864" lon="3.10906">
        <ele>128.2</ele>
        <time>2021-04-25T12:54:03Z</time>
      </trkpt>
      <trkpt lat="48.5186" lon="3.109">
        <ele>128.8</ele>
        <time>2021-04-25T12:54:08Z</time>
      </trkpt>
      <trkpt lat="48.51856" lon="3.10896">
        <ele>129</ele>
        <time>2021-04-25T12:54:12Z</time>
      </trkpt>
      <trkpt lat="48.51852" lon="3.10891">
        <ele>129.2</ele>
        <time>2021-04-25T12:54:16Z</time>
      </trkpt>
      <trkpt lat="48.51848" lon="3.10887">
        <ele>129.3</ele>
        <time>2021-04-25T12:54:19Z</time>
      </trkpt>
      <trkpt lat="48.51843" lon="3.10882">
        <ele>129.6</ele>
        <time>2021-04-25T12:54:23Z</time>
      </trkpt>
      <trkpt lat="48.51839" lon="3.10878">
        <ele>130.4</ele>
        <time>2021-04-25T12:54:27Z</time>
      </trkpt>
      <trkpt lat="48.51835" lon="3.10875">
        <ele>131.5</ele>
        <time>2021-04-25T12:54:31Z</time>
      </trkpt>
      <trkpt lat="48.51831" lon="3.10871">
        <ele>132.4</ele>
        <time>2021-04-25T12:54:35Z</time>
      </trkpt>
      <trkpt lat="48.51827" lon="3.10866">
        <ele>133.3</ele>
        <time>2021-04-25T12:54:39Z</time>
      </trkpt>
      <trkpt lat="48.51823" lon="3.10861">
        <ele>134.3</ele>
        <time>2021-04-25T12:54:44Z</time>
      </trkpt>
      <trkpt lat="48.51819" lon="3.10858">
        <ele>135.4</ele>
        <time>2021-04-25T12:54:48Z</time>
      </trkpt>
      <trkpt lat="48.51815" lon="3.10854">
        <ele>136.6</ele>
        <time>2021-04-25T12:54:52Z</time>
      </trkpt>
      <trkpt lat="48.5181" lon="3.10851">
        <ele>137.5</ele>
        <time>2021-04-25T12:54:56Z</time>
      </trkpt>
      <trkpt lat="48.51806" lon="3.10846">
        <ele>138.5</ele>
        <time>2021-04-25T12:55:00Z</time>
      </trkpt>
      <trkpt lat="48.51802" lon="3.10842">
        <ele>139.5</ele>
        <time>2021-04-25T12:55:04Z</time>
      </trkpt>
      <trkpt lat="48.51798" lon="3.10838">
        <ele>140.5</ele>
        <time>2021-04-25T12:55:08Z</time>
      </trkpt>
      <trkpt lat="48.51794" lon="3.10834">
        <ele>141.4</ele>
        <time>2021-04-25T12:55:12Z</time>
      </trkpt>
      <trkpt lat="48.5179" lon="3.10831">
        <ele>142.1</ele>
        <time>2021-04-25T12:55:16Z</time>
      </trkpt>
      <trkpt lat="48.51785" lon="3.10826">
        <ele>143.1</ele>
        <time>2021-04-25T12:55:20Z</time>
      </trkpt>
      <trkpt lat="48.51781" lon="3.10822">
        <ele>144</ele>
        <time>2021-04-25T12:55:24Z</time>
      </trkpt>
      <trkpt lat="48.51777" lon="3.10816">
        <ele>144.9</ele>
        <time>2021-04-25T12:55:29Z</time>
      </trkpt>
      <trkpt lat="48.51773" lon="3.10813">
        <ele>145.9</ele>
        <time>2021-04-25T12:55:34Z</time>
      </trkpt>
      <trkpt lat="48.51768" lon="3.10808">
        <ele>146.5</ele>
        <time>2021-04-25T12:55:38Z</time>
      </trkpt>
      <trkpt lat="48.51764" lon="3.10804">
        <ele>146.9</ele>
        <time>2021-04-25T12:55:42Z</time>
      </trkpt>
      <trkpt lat="48.51759" lon="3.108">
        <ele>147.1</ele>
        <time>2021-04-25T12:55:46Z</time>
      </trkpt>
      <trkpt lat="48.51755" lon="3.10797">
        <ele>147</ele>
        <time>2021-04-25T12:55:50Z</time>
      </trkpt>
      <trkpt lat="48.5175" lon="3.10792">
        <ele>146.8</ele>
        <time>2021-04-25T12:55:55Z</time>
      </trkpt>
      <trkpt lat="48.51746" lon="3.10788">
        <ele>146.2</ele>
        <time>2021-04-25T12:55:59Z</time>
      </trkpt>
      <trkpt lat="48.51741" lon="3.10784">
        <ele>145.4</ele>
        <time>2021-04-25T12:56:03Z</time>
      </trkpt>
      <trkpt lat="48.51736" lon="3.1078">
        <ele>144.5</ele>
        <time>2021-04-25T12:56:07Z</time>
      </trkpt>
      <trkpt lat="48.51732" lon="3.10774">
        <ele>142.8</ele>
        <time>2021-04-25T12:56:12Z</time>
      </trkpt>
      <trkpt lat="48.51728" lon="3.10771">
        <ele>141.3</ele>
        <time>2021-04-25T12:56:16Z</time>
      </trkpt>
      <trkpt lat="48.51724" lon="3.10775">
        <ele>137.6</ele>
        <time>2021-04-25T12:56:23Z</time>
      </trkpt>
      <trkpt lat="48.51721" lon="3.1077">
        <ele>134.7</ele>
        <time>2021-04-25T12:56:35Z</time>
      </trkpt>
      <trkpt lat="48.51717" lon="3.10768">
        <ele>133</ele>
        <time>2021-04-25T12:56:45Z</time>
      </trkpt>
      <trkpt lat="48.51713" lon="3.10764">
        <ele>132.7</ele>
        <time>2021-04-25T12:56:50Z</time>
      </trkpt>
      <trkpt lat="48.51709" lon="3.10759">
        <ele>132.6</ele>
        <time>2021-04-25T12:56:55Z</time>
      </trkpt>
      <trkpt lat="48.51705" lon="3.10755">
        <ele>132.6</ele>
        <time>2021-04-25T12:57:00Z</time>
      </trkpt>
      <trkpt lat="48.517" lon="3.10752">
        <ele>132.7</ele>
        <time>2021-04-25T12:57:05Z</time>
      </trkpt>
      <trkpt lat="48.51696" lon="3.10748">
        <ele>132.8</ele>
        <time>2021-04-25T12:57:09Z</time>
      </trkpt>
      <trkpt lat="48.51692" lon="3.10744">
        <ele>133.3</ele>
        <time>2021-04-25T12:57:14Z</time>
      </trkpt>
      <trkpt lat="48.51687" lon="3.10739">
        <ele>133.6</ele>
        <time>2021-04-25T12:57:19Z</time>
      </trkpt>
      <trkpt lat="48.51683" lon="3.10736">
        <ele>133.2</ele>
        <time>2021-04-25T12:57:26Z</time>
      </trkpt>
      <trkpt lat="48.51678" lon="3.10732">
        <ele>132.7</ele>
        <time>2021-04-25T12:57:32Z</time>
      </trkpt>
      <trkpt lat="48.51675" lon="3.10727">
        <ele>132.5</ele>
        <time>2021-04-25T12:57:37Z</time>
      </trkpt>
      <trkpt lat="48.51671" lon="3.10724">
        <ele>132.4</ele>
        <time>2021-04-25T12:57:41Z</time>
      </trkpt>
      <trkpt lat="48.51667" lon="3.10719">
        <ele>132.5</ele>
        <time>2021-04-25T12:57:45Z</time>
      </trkpt>
      <trkpt lat="48.51662" lon="3.10716">
        <ele>132.4</ele>
        <time>2021-04-25T12:57:49Z</time>
      </trkpt>
      <trkpt lat="48.51657" lon="3.10713">
        <ele>132.4</ele>
        <time>2021-04-25T12:57:53Z</time>
      </trkpt>
      <trkpt lat="48.51653" lon="3.1071">
        <ele>132.4</ele>
        <time>2021-04-25T12:57:57Z</time>
      </trkpt>
      <trkpt lat="48.51648" lon="3.10708">
        <ele>132.6</ele>
        <time>2021-04-25T12:58:02Z</time>
      </trkpt>
      <trkpt lat="48.51644" lon="3.10708">
        <ele>132.2</ele>
        <time>2021-04-25T12:58:07Z</time>
      </trkpt>
      <trkpt lat="48.51639" lon="3.10704">
        <ele>131.8</ele>
        <time>2021-04-25T12:58:12Z</time>
      </trkpt>
      <trkpt lat="48.51634" lon="3.10701">
        <ele>131.6</ele>
        <time>2021-04-25T12:58:16Z</time>
      </trkpt>
      <trkpt lat="48.51628" lon="3.10699">
        <ele>131.4</ele>
        <time>2021-04-25T12:58:20Z</time>
      </trkpt>
      <trkpt lat="48.51623" lon="3.10697">
        <ele>131.6</ele>
        <time>2021-04-25T12:58:24Z</time>
      </trkpt>
      <trkpt lat="48.51619" lon="3.10695">
        <ele>131.9</ele>
        <time>2021-04-25T12:58:28Z</time>
      </trkpt>
      <trkpt lat="48.51614" lon="3.10692">
        <ele>132.5</ele>
        <time>2021-04-25T12:58:33Z</time>
      </trkpt>
      <trkpt lat="48.51609" lon="3.10689">
        <ele>133.2</ele>
        <time>2021-04-25T12:58:38Z</time>
      </trkpt>
      <trkpt lat="48.51604" lon="3.10687">
        <ele>133.9</ele>
        <time>2021-04-25T12:58:43Z</time>
      </trkpt>
      <trkpt lat="48.51599" lon="3.10686">
        <ele>134.3</ele>
        <time>2021-04-25T12:58:47Z</time>
      </trkpt>
      <trkpt lat="48.51594" lon="3.10685">
        <ele>134.7</ele>
        <time>2021-04-25T12:58:51Z</time>
      </trkpt>
      <trkpt lat="48.5159" lon="3.10687">
        <ele>134.7</ele>
        <time>2021-04-25T12:58:57Z</time>
      </trkpt>
      <trkpt lat="48.51586" lon="3.10682">
        <ele>133.8</ele>
        <time>2021-04-25T12:59:06Z</time>
      </trkpt>
      <trkpt lat="48.51582" lon="3.10679">
        <ele>133.8</ele>
        <time>2021-04-25T12:59:11Z</time>
      </trkpt>
      <trkpt lat="48.51578" lon="3.10676">
        <ele>134</ele>
        <time>2021-04-25T12:59:15Z</time>
      </trkpt>
      <trkpt lat="48.51573" lon="3.10674">
        <ele>134.2</ele>
        <time>2021-04-25T12:59:19Z</time>
      </trkpt>
      <trkpt lat="48.51568" lon="3.10671">
        <ele>134.5</ele>
        <time>2021-04-25T12:59:24Z</time>
      </trkpt>
      <trkpt lat="48.51563" lon="3.10669">
        <ele>134.8</ele>
        <time>2021-04-25T12:59:28Z</time>
      </trkpt>
      <trkpt lat="48.51558" lon="3.10669">
        <ele>135</ele>
        <time>2021-04-25T12:59:32Z</time>
      </trkpt>
      <trkpt lat="48.51553" lon="3.10668">
        <ele>135.2</ele>
        <time>2021-04-25T12:59:37Z</time>
      </trkpt>
      <trkpt lat="48.51547" lon="3.10668">
        <ele>135.2</ele>
        <time>2021-04-25T12:59:41Z</time>
      </trkpt>
      <trkpt lat="48.51542" lon="3.10667">
        <ele>135.3</ele>
        <time>2021-04-25T12:59:45Z</time>
      </trkpt>
      <trkpt lat="48.51538" lon="3.10665">
        <ele>135.4</ele>
        <time>2021-04-25T12:59:49Z</time>
      </trkpt>
      <trkpt lat="48.51533" lon="3.10662">
        <ele>135.5</ele>
        <time>2021-04-25T12:59:54Z</time>
      </trkpt>
      <trkpt lat="48.51527" lon="3.10659">
        <ele>135.5</ele>
        <time>2021-04-25T12:59:58Z</time>
      </trkpt>
      <trkpt lat="48.51522" lon="3.10658">
        <ele>135.8</ele>
        <time>2021-04-25T13:00:02Z</time>
      </trkpt>
      <trkpt lat="48.51518" lon="3.10655">
        <ele>136.1</ele>
        <time>2021-04-25T13:00:05Z</time>
      </trkpt>
      <trkpt lat="48.51512" lon="3.10653">
        <ele>136.7</ele>
        <time>2021-04-25T13:00:09Z</time>
      </trkpt>
      <trkpt lat="48.51508" lon="3.10651">
        <ele>137.1</ele>
        <time>2021-04-25T13:00:13Z</time>
      </trkpt>
      <trkpt lat="48.51503" lon="3.10648">
        <ele>137.4</ele>
        <time>2021-04-25T13:00:17Z</time>
      </trkpt>
      <trkpt lat="48.51498" lon="3.10646">
        <ele>137.6</ele>
        <time>2021-04-25T13:00:21Z</time>
      </trkpt>
      <trkpt lat="48.51494" lon="3.10644">
        <ele>137.5</ele>
        <time>2021-04-25T13:00:25Z</time>
      </trkpt>
      <trkpt lat="48.51489" lon="3.1064">
        <ele>137.3</ele>
        <time>2021-04-25T13:00:29Z</time>
      </trkpt>
      <trkpt lat="48.51484" lon="3.10639">
        <ele>137.3</ele>
        <time>2021-04-25T13:00:33Z</time>
      </trkpt>
      <trkpt lat="48.51479" lon="3.10638">
        <ele>137.3</ele>
        <time>2021-04-25T13:00:37Z</time>
      </trkpt>
      <trkpt lat="48.51474" lon="3.10635">
        <ele>137.3</ele>
        <time>2021-04-25T13:00:41Z</time>
      </trkpt>
      <trkpt lat="48.51469" lon="3.10633">
        <ele>137.4</ele>
        <time>2021-04-25T13:00:45Z</time>
      </trkpt>
      <trkpt lat="48.51465" lon="3.10629">
        <ele>137.5</ele>
        <time>2021-04-25T13:00:49Z</time>
      </trkpt>
      <trkpt lat="48.5146" lon="3.10626">
        <ele>137.6</ele>
        <time>2021-04-25T13:00:53Z</time>
      </trkpt>
      <trkpt lat="48.51456" lon="3.10622">
        <ele>135.2</ele>
        <time>2021-04-25T13:01:05Z</time>
      </trkpt>
      <trkpt lat="48.5145" lon="3.10619">
        <ele>134.8</ele>
        <time>2021-04-25T13:01:09Z</time>
      </trkpt>
      <trkpt lat="48.51445" lon="3.10616">
        <ele>134.7</ele>
        <time>2021-04-25T13:01:13Z</time>
      </trkpt>
      <trkpt lat="48.5144" lon="3.10613">
        <ele>135</ele>
        <time>2021-04-25T13:01:18Z</time>
      </trkpt>
      <trkpt lat="48.51435" lon="3.10611">
        <ele>135.5</ele>
        <time>2021-04-25T13:01:22Z</time>
      </trkpt>
      <trkpt lat="48.5143" lon="3.10608">
        <ele>136.9</ele>
        <time>2021-04-25T13:01:27Z</time>
      </trkpt>
      <trkpt lat="48.51426" lon="3.10605">
        <ele>138.8</ele>
        <time>2021-04-25T13:01:32Z</time>
      </trkpt>
      <trkpt lat="48.51422" lon="3.10601">
        <ele>140.1</ele>
        <time>2021-04-25T13:01:36Z</time>
      </trkpt>
      <trkpt lat="48.51417" lon="3.10597">
        <ele>141.5</ele>
        <time>2021-04-25T13:01:41Z</time>
      </trkpt>
      <trkpt lat="48.51413" lon="3.10594">
        <ele>142.7</ele>
        <time>2021-04-25T13:01:46Z</time>
      </trkpt>
      <trkpt lat="48.51409" lon="3.10592">
        <ele>143.3</ele>
        <time>2021-04-25T13:01:50Z</time>
      </trkpt>
      <trkpt lat="48.51404" lon="3.1059">
        <ele>143.7</ele>
        <time>2021-04-25T13:01:54Z</time>
      </trkpt>
      <trkpt lat="48.51399" lon="3.10589">
        <ele>144.2</ele>
        <time>2021-04-25T13:01:58Z</time>
      </trkpt>
      <trkpt lat="48.51394" lon="3.10587">
        <ele>144.8</ele>
        <time>2021-04-25T13:02:02Z</time>
      </trkpt>
      <trkpt lat="48.5139" lon="3.10584">
        <ele>145.7</ele>
        <time>2021-04-25T13:02:07Z</time>
      </trkpt>
      <trkpt lat="48.51385" lon="3.1058">
        <ele>146.8</ele>
        <time>2021-04-25T13:02:13Z</time>
      </trkpt>
      <trkpt lat="48.51381" lon="3.10577">
        <ele>147.7</ele>
        <time>2021-04-25T13:02:18Z</time>
      </trkpt>
      <trkpt lat="48.51377" lon="3.10574">
        <ele>149.5</ele>
        <time>2021-04-25T13:02:26Z</time>
      </trkpt>
      <trkpt lat="48.51373" lon="3.10571">
        <ele>150.6</ele>
        <time>2021-04-25T13:02:31Z</time>
      </trkpt>
      <trkpt lat="48.51367" lon="3.10569">
        <ele>151.6</ele>
        <time>2021-04-25T13:02:36Z</time>
      </trkpt>
      <trkpt lat="48.51363" lon="3.10568">
        <ele>152.3</ele>
        <time>2021-04-25T13:02:40Z</time>
      </trkpt>
      <trkpt lat="48.51358" lon="3.10567">
        <ele>152.8</ele>
        <time>2021-04-25T13:02:44Z</time>
      </trkpt>
      <trkpt lat="48.51353" lon="3.10566">
        <ele>153.3</ele>
        <time>2021-04-25T13:02:48Z</time>
      </trkpt>
      <trkpt lat="48.51348" lon="3.10565">
        <ele>153.6</ele>
        <time>2021-04-25T13:02:52Z</time>
      </trkpt>
      <trkpt lat="48.51343" lon="3.10563">
        <ele>153.9</ele>
        <time>2021-04-25T13:02:56Z</time>
      </trkpt>
      <trkpt lat="48.51338" lon="3.10563">
        <ele>154.3</ele>
        <time>2021-04-25T13:03:00Z</time>
      </trkpt>
      <trkpt lat="48.51334" lon="3.10563">
        <ele>154.7</ele>
        <time>2021-04-25T13:03:04Z</time>
      </trkpt>
      <trkpt lat="48.51328" lon="3.10565">
        <ele>155.2</ele>
        <time>2021-04-25T13:03:09Z</time>
      </trkpt>
      <trkpt lat="48.51324" lon="3.10566">
        <ele>155.6</ele>
        <time>2021-04-25T13:03:13Z</time>
      </trkpt>
      <trkpt lat="48.51319" lon="3.10567">
        <ele>155.9</ele>
        <time>2021-04-25T13:03:17Z</time>
      </trkpt>
      <trkpt lat="48.51314" lon="3.10567">
        <ele>156.3</ele>
        <time>2021-04-25T13:03:21Z</time>
      </trkpt>
      <trkpt lat="48.51309" lon="3.10567">
        <ele>156.6</ele>
        <time>2021-04-25T13:03:26Z</time>
      </trkpt>
      <trkpt lat="48.51304" lon="3.10567">
        <ele>157</ele>
        <time>2021-04-25T13:03:31Z</time>
      </trkpt>
      <trkpt lat="48.51299" lon="3.10568">
        <ele>157.2</ele>
        <time>2021-04-25T13:03:36Z</time>
      </trkpt>
      <trkpt lat="48.51293" lon="3.10568">
        <ele>157.2</ele>
        <time>2021-04-25T13:03:41Z</time>
      </trkpt>
      <trkpt lat="48.51289" lon="3.10568">
        <ele>157</ele>
        <time>2021-04-25T13:03:45Z</time>
      </trkpt>
      <trkpt lat="48.51284" lon="3.10567">
        <ele>156.7</ele>
        <time>2021-04-25T13:03:50Z</time>
      </trkpt>
      <trkpt lat="48.51279" lon="3.10565">
        <ele>156.5</ele>
        <time>2021-04-25T13:03:54Z</time>
      </trkpt>
      <trkpt lat="48.51274" lon="3.10563">
        <ele>156.2</ele>
        <time>2021-04-25T13:03:59Z</time>
      </trkpt>
      <trkpt lat="48.51269" lon="3.10563">
        <ele>156.1</ele>
        <time>2021-04-25T13:04:04Z</time>
      </trkpt>
      <trkpt lat="48.51264" lon="3.10563">
        <ele>156</ele>
        <time>2021-04-25T13:04:09Z</time>
      </trkpt>
      <trkpt lat="48.51259" lon="3.10562">
        <ele>156.1</ele>
        <time>2021-04-25T13:04:12Z</time>
      </trkpt>
      <trkpt lat="48.51254" lon="3.10562">
        <ele>156</ele>
        <time>2021-04-25T13:04:16Z</time>
      </trkpt>
      <trkpt lat="48.51249" lon="3.10564">
        <ele>155.8</ele>
        <time>2021-04-25T13:04:20Z</time>
      </trkpt>
      <trkpt lat="48.51245" lon="3.10562">
        <ele>155.6</ele>
        <time>2021-04-25T13:04:24Z</time>
      </trkpt>
      <trkpt lat="48.5124" lon="3.10558">
        <ele>155.2</ele>
        <time>2021-04-25T13:04:28Z</time>
      </trkpt>
      <trkpt lat="48.51236" lon="3.10555">
        <ele>154.8</ele>
        <time>2021-04-25T13:04:32Z</time>
      </trkpt>
      <trkpt lat="48.51231" lon="3.10551">
        <ele>154.3</ele>
        <time>2021-04-25T13:04:36Z</time>
      </trkpt>
      <trkpt lat="48.51226" lon="3.10549">
        <ele>153.9</ele>
        <time>2021-04-25T13:04:40Z</time>
      </trkpt>
      <trkpt lat="48.51221" lon="3.10547">
        <ele>153.8</ele>
        <time>2021-04-25T13:04:44Z</time>
      </trkpt>
      <trkpt lat="48.51216" lon="3.10548">
        <ele>153.7</ele>
        <time>2021-04-25T13:04:48Z</time>
      </trkpt>
      <trkpt lat="48.51211" lon="3.10551">
        <ele>153.3</ele>
        <time>2021-04-25T13:04:52Z</time>
      </trkpt>
      <trkpt lat="48.51208" lon="3.10556">
        <ele>152.7</ele>
        <time>2021-04-25T13:04:56Z</time>
      </trkpt>
      <trkpt lat="48.51205" lon="3.10561">
        <ele>152</ele>
        <time>2021-04-25T13:05:00Z</time>
      </trkpt>
      <trkpt lat="48.51203" lon="3.10568">
        <ele>151.2</ele>
        <time>2021-04-25T13:05:04Z</time>
      </trkpt>
      <trkpt lat="48.51201" lon="3.10575">
        <ele>150.5</ele>
        <time>2021-04-25T13:05:09Z</time>
      </trkpt>
      <trkpt lat="48.51199" lon="3.10583">
        <ele>149.6</ele>
        <time>2021-04-25T13:05:14Z</time>
      </trkpt>
      <trkpt lat="48.51198" lon="3.10589">
        <ele>149</ele>
        <time>2021-04-25T13:05:18Z</time>
      </trkpt>
      <trkpt lat="48.51197" lon="3.10597">
        <ele>148.5</ele>
        <time>2021-04-25T13:05:22Z</time>
      </trkpt>
      <trkpt lat="48.51195" lon="3.10605">
        <ele>148.1</ele>
        <time>2021-04-25T13:05:26Z</time>
      </trkpt>
      <trkpt lat="48.51194" lon="3.10611">
        <ele>147.7</ele>
        <time>2021-04-25T13:05:30Z</time>
      </trkpt>
      <trkpt lat="48.5119" lon="3.10617">
        <ele>147.1</ele>
        <time>2021-04-25T13:05:35Z</time>
      </trkpt>
      <trkpt lat="48.51186" lon="3.10621">
        <ele>146.8</ele>
        <time>2021-04-25T13:05:40Z</time>
      </trkpt>
      <trkpt lat="48.51181" lon="3.10622">
        <ele>146.4</ele>
        <time>2021-04-25T13:05:45Z</time>
      </trkpt>
      <trkpt lat="48.51176" lon="3.10621">
        <ele>145.9</ele>
        <time>2021-04-25T13:05:50Z</time>
      </trkpt>
      <trkpt lat="48.51172" lon="3.10617">
        <ele>145.4</ele>
        <time>2021-04-25T13:05:54Z</time>
      </trkpt>
      <trkpt lat="48.51169" lon="3.10612">
        <ele>144.9</ele>
        <time>2021-04-25T13:05:58Z</time>
      </trkpt>
      <trkpt lat="48.51165" lon="3.10609">
        <ele>144.7</ele>
        <time>2021-04-25T13:06:02Z</time>
      </trkpt>
      <trkpt lat="48.5116" lon="3.10606">
        <ele>144.4</ele>
        <time>2021-04-25T13:06:07Z</time>
      </trkpt>
      <trkpt lat="48.51155" lon="3.10602">
        <ele>144.1</ele>
        <time>2021-04-25T13:06:12Z</time>
      </trkpt>
      <trkpt lat="48.5115" lon="3.10602">
        <ele>143.7</ele>
        <time>2021-04-25T13:06:17Z</time>
      </trkpt>
      <trkpt lat="48.51144" lon="3.10602">
        <ele>143.5</ele>
        <time>2021-04-25T13:06:22Z</time>
      </trkpt>
      <trkpt lat="48.51139" lon="3.10601">
        <ele>143.5</ele>
        <time>2021-04-25T13:06:26Z</time>
      </trkpt>
      <trkpt lat="48.51134" lon="3.10598">
        <ele>143.6</ele>
        <time>2021-04-25T13:06:30Z</time>
      </trkpt>
      <trkpt lat="48.51129" lon="3.10597">
        <ele>143.6</ele>
        <time>2021-04-25T13:06:34Z</time>
      </trkpt>
      <trkpt lat="48.51124" lon="3.10596">
        <ele>143.7</ele>
        <time>2021-04-25T13:06:39Z</time>
      </trkpt>
      <trkpt lat="48.51119" lon="3.10595">
        <ele>143.8</ele>
        <time>2021-04-25T13:06:44Z</time>
      </trkpt>
      <trkpt lat="48.51114" lon="3.10593">
        <ele>143.6</ele>
        <time>2021-04-25T13:06:49Z</time>
      </trkpt>
      <trkpt lat="48.5111" lon="3.10591">
        <ele>143.3</ele>
        <time>2021-04-25T13:06:54Z</time>
      </trkpt>
      <trkpt lat="48.51106" lon="3.10588">
        <ele>142.8</ele>
        <time>2021-04-25T13:06:59Z</time>
      </trkpt>
      <trkpt lat="48.51101" lon="3.10585">
        <ele>142.4</ele>
        <time>2021-04-25T13:07:03Z</time>
      </trkpt>
      <trkpt lat="48.51096" lon="3.10583">
        <ele>142</ele>
        <time>2021-04-25T13:07:07Z</time>
      </trkpt>
      <trkpt lat="48.51091" lon="3.10582">
        <ele>141.7</ele>
        <time>2021-04-25T13:07:10Z</time>
      </trkpt>
      <trkpt lat="48.51086" lon="3.1058">
        <ele>141.3</ele>
        <time>2021-04-25T13:07:14Z</time>
      </trkpt>
      <trkpt lat="48.51082" lon="3.10578">
        <ele>140.6</ele>
        <time>2021-04-25T13:07:19Z</time>
      </trkpt>
      <trkpt lat="48.51077" lon="3.10577">
        <ele>140.1</ele>
        <time>2021-04-25T13:07:24Z</time>
      </trkpt>
      <trkpt lat="48.51072" lon="3.10574">
        <ele>139.9</ele>
        <time>2021-04-25T13:07:29Z</time>
      </trkpt>
      <trkpt lat="48.51067" lon="3.10572">
        <ele>139.5</ele>
        <time>2021-04-25T13:07:34Z</time>
      </trkpt>
      <trkpt lat="48.51062" lon="3.1057">
        <ele>139</ele>
        <time>2021-04-25T13:07:39Z</time>
      </trkpt>
      <trkpt lat="48.51057" lon="3.10568">
        <ele>138.5</ele>
        <time>2021-04-25T13:07:43Z</time>
      </trkpt>
      <trkpt lat="48.51052" lon="3.10566">
        <ele>138</ele>
        <time>2021-04-25T13:07:47Z</time>
      </trkpt>
      <trkpt lat="48.51046" lon="3.10566">
        <ele>137.7</ele>
        <time>2021-04-25T13:07:51Z</time>
      </trkpt>
      <trkpt lat="48.5104" lon="3.10565">
        <ele>137.4</ele>
        <time>2021-04-25T13:07:55Z</time>
      </trkpt>
      <trkpt lat="48.51035" lon="3.10563">
        <ele>137.1</ele>
        <time>2021-04-25T13:07:59Z</time>
      </trkpt>
      <trkpt lat="48.5103" lon="3.10559">
        <ele>136.8</ele>
        <time>2021-04-25T13:08:03Z</time>
      </trkpt>
      <trkpt lat="48.51025" lon="3.10557">
        <ele>136.5</ele>
        <time>2021-04-25T13:08:07Z</time>
      </trkpt>
      <trkpt lat="48.5102" lon="3.10555">
        <ele>136.3</ele>
        <time>2021-04-25T13:08:11Z</time>
      </trkpt>
      <trkpt lat="48.51015" lon="3.10554">
        <ele>136</ele>
        <time>2021-04-25T13:08:15Z</time>
      </trkpt>
      <trkpt lat="48.5101" lon="3.10553">
        <ele>136</ele>
        <time>2021-04-25T13:08:19Z</time>
      </trkpt>
      <trkpt lat="48.51004" lon="3.10551">
        <ele>136</ele>
        <time>2021-04-25T13:08:23Z</time>
      </trkpt>
      <trkpt lat="48.51004" lon="3.10543">
        <ele>135.8</ele>
        <time>2021-04-25T13:08:28Z</time>
      </trkpt>
      <trkpt lat="48.51005" lon="3.10536">
        <ele>135.1</ele>
        <time>2021-04-25T13:08:33Z</time>
      </trkpt>
      <trkpt lat="48.51006" lon="3.10529">
        <ele>134.5</ele>
        <time>2021-04-25T13:08:37Z</time>
      </trkpt>
      <trkpt lat="48.51009" lon="3.10522">
        <ele>133.9</ele>
        <time>2021-04-25T13:08:41Z</time>
      </trkpt>
      <trkpt lat="48.51012" lon="3.10516">
        <ele>133.3</ele>
        <time>2021-04-25T13:08:45Z</time>
      </trkpt>
      <trkpt lat="48.51015" lon="3.1051">
        <ele>132.8</ele>
        <time>2021-04-25T13:08:49Z</time>
      </trkpt>
      <trkpt lat="48.51016" lon="3.10503">
        <ele>132.4</ele>
        <time>2021-04-25T13:08:52Z</time>
      </trkpt>
      <trkpt lat="48.51016" lon="3.10496">
        <ele>132.1</ele>
        <time>2021-04-25T13:08:55Z</time>
      </trkpt>
      <trkpt lat="48.51018" lon="3.10489">
        <ele>131.7</ele>
        <time>2021-04-25T13:08:59Z</time>
      </trkpt>
      <trkpt lat="48.51019" lon="3.10481">
        <ele>131.3</ele>
        <time>2021-04-25T13:09:03Z</time>
      </trkpt>
      <trkpt lat="48.5102" lon="3.10474">
        <ele>131</ele>
        <time>2021-04-25T13:09:07Z</time>
      </trkpt>
      <trkpt lat="48.51021" lon="3.10466">
        <ele>130.7</ele>
        <time>2021-04-25T13:09:12Z</time>
      </trkpt>
      <trkpt lat="48.51022" lon="3.10459">
        <ele>130.2</ele>
        <time>2021-04-25T13:09:16Z</time>
      </trkpt>
      <trkpt lat="48.51024" lon="3.10452">
        <ele>129.5</ele>
        <time>2021-04-25T13:09:21Z</time>
      </trkpt>
      <trkpt lat="48.51026" lon="3.10443">
        <ele>128.9</ele>
        <time>2021-04-25T13:09:26Z</time>
      </trkpt>
      <trkpt lat="48.51027" lon="3.10436">
        <ele>128.6</ele>
        <time>2021-04-25T13:09:30Z</time>
      </trkpt>
      <trkpt lat="48.51029" lon="3.10428">
        <ele>128.5</ele>
        <time>2021-04-25T13:09:34Z</time>
      </trkpt>
      <trkpt lat="48.51031" lon="3.10421">
        <ele>128.3</ele>
        <time>2021-04-25T13:09:38Z</time>
      </trkpt>
      <trkpt lat="48.51032" lon="3.10414">
        <ele>128</ele>
        <time>2021-04-25T13:09:42Z</time>
      </trkpt>
      <trkpt lat="48.51034" lon="3.10408">
        <ele>128.2</ele>
        <time>2021-04-25T13:09:46Z</time>
      </trkpt>
      <trkpt lat="48.51037" lon="3.10401">
        <ele>128.4</ele>
        <time>2021-04-25T13:09:51Z</time>
      </trkpt>
      <trkpt lat="48.51039" lon="3.10394">
        <ele>128.5</ele>
        <time>2021-04-25T13:09:55Z</time>
      </trkpt>
      <trkpt lat="48.51041" lon="3.10388">
        <ele>128.5</ele>
        <time>2021-04-25T13:09:59Z</time>
      </trkpt>
      <trkpt lat="48.51044" lon="3.10381">
        <ele>128.4</ele>
        <time>2021-04-25T13:10:03Z</time>
      </trkpt>
      <trkpt lat="48.51047" lon="3.10374">
        <ele>128.2</ele>
        <time>2021-04-25T13:10:08Z</time>
      </trkpt>
      <trkpt lat="48.51049" lon="3.10367">
        <ele>128</ele>
        <time>2021-04-25T13:10:13Z</time>
      </trkpt>
      <trkpt lat="48.5105" lon="3.10359">
        <ele>127.8</ele>
        <time>2021-04-25T13:10:18Z</time>
      </trkpt>
      <trkpt lat="48.5105" lon="3.10352">
        <ele>127.6</ele>
        <time>2021-04-25T13:10:22Z</time>
      </trkpt>
      <trkpt lat="48.51052" lon="3.10345">
        <ele>127.3</ele>
        <time>2021-04-25T13:10:26Z</time>
      </trkpt>
      <trkpt lat="48.51053" lon="3.10338">
        <ele>127</ele>
        <time>2021-04-25T13:10:30Z</time>
      </trkpt>
      <trkpt lat="48.51055" lon="3.10331">
        <ele>126.9</ele>
        <time>2021-04-25T13:10:34Z</time>
      </trkpt>
      <trkpt lat="48.51057" lon="3.10324">
        <ele>127</ele>
        <time>2021-04-25T13:10:38Z</time>
      </trkpt>
      <trkpt lat="48.51059" lon="3.10317">
        <ele>127</ele>
        <time>2021-04-25T13:10:42Z</time>
      </trkpt>
      <trkpt lat="48.5106" lon="3.10309">
        <ele>127.2</ele>
        <time>2021-04-25T13:10:46Z</time>
      </trkpt>
      <trkpt lat="48.51061" lon="3.10302">
        <ele>127.3</ele>
        <time>2021-04-25T13:10:50Z</time>
      </trkpt>
      <trkpt lat="48.51064" lon="3.10295">
        <ele>127.7</ele>
        <time>2021-04-25T13:10:55Z</time>
      </trkpt>
      <trkpt lat="48.51066" lon="3.10289">
        <ele>128</ele>
        <time>2021-04-25T13:10:59Z</time>
      </trkpt>
      <trkpt lat="48.51069" lon="3.10282">
        <ele>128.4</ele>
        <time>2021-04-25T13:11:03Z</time>
      </trkpt>
      <trkpt lat="48.51071" lon="3.10275">
        <ele>128.6</ele>
        <time>2021-04-25T13:11:07Z</time>
      </trkpt>
      <trkpt lat="48.51068" lon="3.10269">
        <ele>128.9</ele>
        <time>2021-04-25T13:11:12Z</time>
      </trkpt>
      <trkpt lat="48.51063" lon="3.10265">
        <ele>128.9</ele>
        <time>2021-04-25T13:11:17Z</time>
      </trkpt>
      <trkpt lat="48.51059" lon="3.10262">
        <ele>128.7</ele>
        <time>2021-04-25T13:11:21Z</time>
      </trkpt>
      <trkpt lat="48.51054" lon="3.10258">
        <ele>128.4</ele>
        <time>2021-04-25T13:11:26Z</time>
      </trkpt>
      <trkpt lat="48.51051" lon="3.10253">
        <ele>128.1</ele>
        <time>2021-04-25T13:11:30Z</time>
      </trkpt>
      <trkpt lat="48.51047" lon="3.10247">
        <ele>127.8</ele>
        <time>2021-04-25T13:11:34Z</time>
      </trkpt>
      <trkpt lat="48.51044" lon="3.10242">
        <ele>127.6</ele>
        <time>2021-04-25T13:11:38Z</time>
      </trkpt>
      <trkpt lat="48.5104" lon="3.10237">
        <ele>127.2</ele>
        <time>2021-04-25T13:11:43Z</time>
      </trkpt>
      <trkpt lat="48.51035" lon="3.10233">
        <ele>126.8</ele>
        <time>2021-04-25T13:11:48Z</time>
      </trkpt>
      <trkpt lat="48.51032" lon="3.10229">
        <ele>126.5</ele>
        <time>2021-04-25T13:11:52Z</time>
      </trkpt>
      <trkpt lat="48.51027" lon="3.10227">
        <ele>126.4</ele>
        <time>2021-04-25T13:11:56Z</time>
      </trkpt>
      <trkpt lat="48.51022" lon="3.10224">
        <ele>126.1</ele>
        <time>2021-04-25T13:12:01Z</time>
      </trkpt>
      <trkpt lat="48.51018" lon="3.10221">
        <ele>125.6</ele>
        <time>2021-04-25T13:12:05Z</time>
      </trkpt>
      <trkpt lat="48.51013" lon="3.10217">
        <ele>125.2</ele>
        <time>2021-04-25T13:12:09Z</time>
      </trkpt>
      <trkpt lat="48.51008" lon="3.10214">
        <ele>124.7</ele>
        <time>2021-04-25T13:12:13Z</time>
      </trkpt>
      <trkpt lat="48.51005" lon="3.10209">
        <ele>124.1</ele>
        <time>2021-04-25T13:12:17Z</time>
      </trkpt>
      <trkpt lat="48.51003" lon="3.10202">
        <ele>123.6</ele>
        <time>2021-04-25T13:12:21Z</time>
      </trkpt>
      <trkpt lat="48.51003" lon="3.10195">
        <ele>123.2</ele>
        <time>2021-04-25T13:12:25Z</time>
      </trkpt>
      <trkpt lat="48.51002" lon="3.10188">
        <ele>123</ele>
        <time>2021-04-25T13:12:29Z</time>
      </trkpt>
      <trkpt lat="48.51002" lon="3.10181">
        <ele>123</ele>
        <time>2021-04-25T13:12:33Z</time>
      </trkpt>
      <trkpt lat="48.51002" lon="3.10173">
        <ele>123</ele>
        <time>2021-04-25T13:12:38Z</time>
      </trkpt>
      <trkpt lat="48.51003" lon="3.10165">
        <ele>123</ele>
        <time>2021-04-25T13:12:43Z</time>
      </trkpt>
      <trkpt lat="48.51" lon="3.1016">
        <ele>122.8</ele>
        <time>2021-04-25T13:12:47Z</time>
      </trkpt>
      <trkpt lat="48.50996" lon="3.10154">
        <ele>122.6</ele>
        <time>2021-04-25T13:12:51Z</time>
      </trkpt>
      <trkpt lat="48.50992" lon="3.10149">
        <ele>122.3</ele>
        <time>2021-04-25T13:12:55Z</time>
      </trkpt>
      <trkpt lat="48.50989" lon="3.10143">
        <ele>122.1</ele>
        <time>2021-04-25T13:13:00Z</time>
      </trkpt>
      <trkpt lat="48.50984" lon="3.10139">
        <ele>122</ele>
        <time>2021-04-25T13:13:04Z</time>
      </trkpt>
      <trkpt lat="48.5098" lon="3.10135">
        <ele>121.9</ele>
        <time>2021-04-25T13:13:09Z</time>
      </trkpt>
      <trkpt lat="48.50976" lon="3.1013">
        <ele>121.7</ele>
        <time>2021-04-25T13:13:14Z</time>
      </trkpt>
      <trkpt lat="48.50971" lon="3.10125">
        <ele>121.5</ele>
        <time>2021-04-25T13:13:19Z</time>
      </trkpt>
      <trkpt lat="48.50966" lon="3.10122">
        <ele>121.4</ele>
        <time>2021-04-25T13:13:23Z</time>
      </trkpt>
      <trkpt lat="48.50961" lon="3.1012">
        <ele>121.1</ele>
        <time>2021-04-25T13:13:27Z</time>
      </trkpt>
      <trkpt lat="48.50957" lon="3.10116">
        <ele>120.6</ele>
        <time>2021-04-25T13:13:32Z</time>
      </trkpt>
      <trkpt lat="48.50953" lon="3.10111">
        <ele>120.2</ele>
        <time>2021-04-25T13:13:37Z</time>
      </trkpt>
      <trkpt lat="48.50948" lon="3.10108">
        <ele>119.9</ele>
        <time>2021-04-25T13:13:41Z</time>
      </trkpt>
      <trkpt lat="48.50943" lon="3.10106">
        <ele>119.8</ele>
        <time>2021-04-25T13:13:44Z</time>
      </trkpt>
      <trkpt lat="48.50939" lon="3.10104">
        <ele>119.7</ele>
        <time>2021-04-25T13:13:47Z</time>
      </trkpt>
      <trkpt lat="48.50934" lon="3.10103">
        <ele>119.7</ele>
        <time>2021-04-25T13:13:51Z</time>
      </trkpt>
      <trkpt lat="48.5093" lon="3.101">
        <ele>119.6</ele>
        <time>2021-04-25T13:13:55Z</time>
      </trkpt>
      <trkpt lat="48.50925" lon="3.10098">
        <ele>119.6</ele>
        <time>2021-04-25T13:13:59Z</time>
      </trkpt>
      <trkpt lat="48.5092" lon="3.10094">
        <ele>119.6</ele>
        <time>2021-04-25T13:14:04Z</time>
      </trkpt>
      <trkpt lat="48.50917" lon="3.10089">
        <ele>119.7</ele>
        <time>2021-04-25T13:14:08Z</time>
      </trkpt>
      <trkpt lat="48.50912" lon="3.10088">
        <ele>119.9</ele>
        <time>2021-04-25T13:14:12Z</time>
      </trkpt>
      <trkpt lat="48.50906" lon="3.10087">
        <ele>120.2</ele>
        <time>2021-04-25T13:14:16Z</time>
      </trkpt>
      <trkpt lat="48.50901" lon="3.10085">
        <ele>120.3</ele>
        <time>2021-04-25T13:14:20Z</time>
      </trkpt>
      <trkpt lat="48.50897" lon="3.1008">
        <ele>120.3</ele>
        <time>2021-04-25T13:14:26Z</time>
      </trkpt>
      <trkpt lat="48.50898" lon="3.10073">
        <ele>120</ele>
        <time>2021-04-25T13:14:30Z</time>
      </trkpt>
      <trkpt lat="48.509" lon="3.10065">
        <ele>119.5</ele>
        <time>2021-04-25T13:14:34Z</time>
      </trkpt>
      <trkpt lat="48.50903" lon="3.10058">
        <ele>119</ele>
        <time>2021-04-25T13:14:38Z</time>
      </trkpt>
      <trkpt lat="48.50907" lon="3.10051">
        <ele>118.6</ele>
        <time>2021-04-25T13:14:42Z</time>
      </trkpt>
      <trkpt lat="48.50911" lon="3.10046">
        <ele>118.1</ele>
        <time>2021-04-25T13:14:46Z</time>
      </trkpt>
      <trkpt lat="48.50914" lon="3.1004">
        <ele>117.1</ele>
        <time>2021-04-25T13:14:51Z</time>
      </trkpt>
      <trkpt lat="48.50919" lon="3.10036">
        <ele>115.6</ele>
        <time>2021-04-25T13:14:56Z</time>
      </trkpt>
      <trkpt lat="48.50923" lon="3.10031">
        <ele>114.3</ele>
        <time>2021-04-25T13:15:01Z</time>
      </trkpt>
      <trkpt lat="48.50927" lon="3.10026">
        <ele>113.4</ele>
        <time>2021-04-25T13:15:05Z</time>
      </trkpt>
      <trkpt lat="48.50929" lon="3.10019">
        <ele>112.6</ele>
        <time>2021-04-25T13:15:09Z</time>
      </trkpt>
      <trkpt lat="48.50932" lon="3.10014">
        <ele>111.8</ele>
        <time>2021-04-25T13:15:13Z</time>
      </trkpt>
      <trkpt lat="48.50935" lon="3.10008">
        <ele>111.2</ele>
        <time>2021-04-25T13:15:17Z</time>
      </trkpt>
      <trkpt lat="48.50937" lon="3.10001">
        <ele>110.8</ele>
        <time>2021-04-25T13:15:21Z</time>
      </trkpt>
      <trkpt lat="48.50939" lon="3.09995">
        <ele>110.4</ele>
        <time>2021-04-25T13:15:25Z</time>
      </trkpt>
      <trkpt lat="48.50943" lon="3.09988">
        <ele>110.2</ele>
        <time>2021-04-25T13:15:29Z</time>
      </trkpt>
      <trkpt lat="48.50946" lon="3.09983">
        <ele>110</ele>
        <time>2021-04-25T13:15:33Z</time>
      </trkpt>
      <trkpt lat="48.50948" lon="3.09976">
        <ele>109.9</ele>
        <time>2021-04-25T13:15:37Z</time>
      </trkpt>
      <trkpt lat="48.50948" lon="3.09968">
        <ele>109.7</ele>
        <time>2021-04-25T13:15:41Z</time>
      </trkpt>
      <trkpt lat="48.50952" lon="3.09963">
        <ele>108.7</ele>
        <time>2021-04-25T13:15:48Z</time>
      </trkpt>
      <trkpt lat="48.50957" lon="3.09963">
        <ele>107.9</ele>
        <time>2021-04-25T13:15:53Z</time>
      </trkpt>
      <trkpt lat="48.50962" lon="3.09963">
        <ele>107.2</ele>
        <time>2021-04-25T13:15:57Z</time>
      </trkpt>
      <trkpt lat="48.50967" lon="3.09965">
        <ele>106.6</ele>
        <time>2021-04-25T13:16:01Z</time>
      </trkpt>
      <trkpt lat="48.50972" lon="3.09967">
        <ele>106.3</ele>
        <time>2021-04-25T13:16:05Z</time>
      </trkpt>
      <trkpt lat="48.50977" lon="3.09969">
        <ele>106.1</ele>
        <time>2021-04-25T13:16:09Z</time>
      </trkpt>
      <trkpt lat="48.50982" lon="3.09971">
        <ele>105.8</ele>
        <time>2021-04-25T13:16:13Z</time>
      </trkpt>
      <trkpt lat="48.50987" lon="3.09972">
        <ele>105.4</ele>
        <time>2021-04-25T13:16:17Z</time>
      </trkpt>
      <trkpt lat="48.50992" lon="3.09975">
        <ele>105</ele>
        <time>2021-04-25T13:16:21Z</time>
      </trkpt>
      <trkpt lat="48.50998" lon="3.09978">
        <ele>104.7</ele>
        <time>2021-04-25T13:16:25Z</time>
      </trkpt>
      <trkpt lat="48.51003" lon="3.09981">
        <ele>104.4</ele>
        <time>2021-04-25T13:16:29Z</time>
      </trkpt>
      <trkpt lat="48.51007" lon="3.09986">
        <ele>104</ele>
        <time>2021-04-25T13:16:33Z</time>
      </trkpt>
      <trkpt lat="48.51012" lon="3.09989">
        <ele>103.8</ele>
        <time>2021-04-25T13:16:37Z</time>
      </trkpt>
      <trkpt lat="48.51016" lon="3.09995">
        <ele>103.5</ele>
        <time>2021-04-25T13:16:41Z</time>
      </trkpt>
      <trkpt lat="48.5102" lon="3.10001">
        <ele>103.3</ele>
        <time>2021-04-25T13:16:45Z</time>
      </trkpt>
      <trkpt lat="48.51024" lon="3.10005">
        <ele>103.2</ele>
        <time>2021-04-25T13:16:49Z</time>
      </trkpt>
      <trkpt lat="48.51029" lon="3.10009">
        <ele>103.1</ele>
        <time>2021-04-25T13:16:53Z</time>
      </trkpt>
      <trkpt lat="48.51033" lon="3.10014">
        <ele>102.9</ele>
        <time>2021-04-25T13:16:57Z</time>
      </trkpt>
      <trkpt lat="48.51037" lon="3.10017">
        <ele>102.7</ele>
        <time>2021-04-25T13:17:01Z</time>
      </trkpt>
      <trkpt lat="48.51041" lon="3.10019">
        <ele>102.6</ele>
        <time>2021-04-25T13:17:04Z</time>
      </trkpt>
      <trkpt lat="48.51046" lon="3.10021">
        <ele>102.6</ele>
        <time>2021-04-25T13:17:07Z</time>
      </trkpt>
      <trkpt lat="48.51051" lon="3.10025">
        <ele>102.7</ele>
        <time>2021-04-25T13:17:10Z</time>
      </trkpt>
      <trkpt lat="48.51055" lon="3.10031">
        <ele>102.7</ele>
        <time>2021-04-25T13:17:15Z</time>
      </trkpt>
      <trkpt lat="48.5106" lon="3.10036">
        <ele>102.9</ele>
        <time>2021-04-25T13:17:21Z</time>
      </trkpt>
      <trkpt lat="48.51065" lon="3.10039">
        <ele>103.3</ele>
        <time>2021-04-25T13:17:25Z</time>
      </trkpt>
      <trkpt lat="48.51069" lon="3.10043">
        <ele>104.1</ele>
        <time>2021-04-25T13:17:30Z</time>
      </trkpt>
      <trkpt lat="48.51073" lon="3.10047">
        <ele>104.9</ele>
        <time>2021-04-25T13:17:34Z</time>
      </trkpt>
      <trkpt lat="48.51078" lon="3.1005">
        <ele>105.7</ele>
        <time>2021-04-25T13:17:37Z</time>
      </trkpt>
      <trkpt lat="48.51083" lon="3.10052">
        <ele>106.6</ele>
        <time>2021-04-25T13:17:42Z</time>
      </trkpt>
      <trkpt lat="48.51085" lon="3.10045">
        <ele>108.2</ele>
        <time>2021-04-25T13:17:53Z</time>
      </trkpt>
      <trkpt lat="48.51088" lon="3.1004">
        <ele>109</ele>
        <time>2021-04-25T13:17:59Z</time>
      </trkpt>
      <trkpt lat="48.51093" lon="3.1004">
        <ele>109.4</ele>
        <time>2021-04-25T13:18:04Z</time>
      </trkpt>
      <trkpt lat="48.51082" lon="3.10041">
        <ele>95.2</ele>
        <time>2021-04-25T13:19:31Z</time>
      </trkpt>
      <trkpt lat="48.51087" lon="3.10041">
        <ele>126.2</ele>
        <time>2021-04-25T13:19:38Z</time>
      </trkpt>
    </trkseg>
  </trk>
</gpx>